<?xml version="1.0" encoding="UTF-8" standalone="no" ?>
<gpx xmlns="http://www.topografix.com/GPX/1/1" xmlns:xsi="http://www.w3.org/2001/XMLSchema-instance" xsi:schemaLocation="http://www.topografix.com/GPX/1/1 http://www.topografix.com/GPX/1/1/gpx.xsd" version="1.1" creator="VisuGPX - https://www.visugpx.com">
  <metadata>
    <name>Croix du Nivolet 2021-06-10</name>
    <desc><![CDATA[Boucle avec retour sur trace perdue]]></desc>
  </metadata>
  <trk>
    <name><![CDATA[2021-06-10 11:31:34]]></name>
    <extensions>
      <line xmlns="http://www.topografix.com/GPX/gpx_style/0/2">
        <color>0000FF</color>
        <width>4</width>
      </line>
    </extensions>
    <trkseg>
      <trkpt lat="45.61153" lon="5.99329">
        <ele>1128.56</ele>
        <time>2021-06-10T05:28:36Z</time>
      </trkpt>
      <trkpt lat="45.61153" lon="5.99329">
        <ele>1128.56</ele>
        <time>2021-06-10T05:28:37Z</time>
      </trkpt>
      <trkpt lat="45.61152" lon="5.99328">
        <ele>1125.48</ele>
        <time>2021-06-10T05:28:41Z</time>
      </trkpt>
      <trkpt lat="45.61152" lon="5.99327">
        <ele>1125.79</ele>
        <time>2021-06-10T05:28:42Z</time>
      </trkpt>
      <trkpt lat="45.61155" lon="5.99329">
        <ele>1126.1</ele>
        <time>2021-06-10T05:29:00Z</time>
      </trkpt>
      <trkpt lat="45.61157" lon="5.9932">
        <ele>1126.29</ele>
        <time>2021-06-10T05:29:13Z</time>
      </trkpt>
      <trkpt lat="45.61157" lon="5.99316">
        <ele>1126.2</ele>
        <time>2021-06-10T05:29:18Z</time>
      </trkpt>
      <trkpt lat="45.61159" lon="5.99309">
        <ele>1126.5</ele>
        <time>2021-06-10T05:29:35Z</time>
      </trkpt>
      <trkpt lat="45.61161" lon="5.99304">
        <ele>1126.79</ele>
        <time>2021-06-10T05:29:57Z</time>
      </trkpt>
      <trkpt lat="45.61161" lon="5.99303">
        <ele>1126.9</ele>
        <time>2021-06-10T05:29:58Z</time>
      </trkpt>
      <trkpt lat="45.61161" lon="5.99275">
        <ele>1129.58</ele>
        <time>2021-06-10T05:30:15Z</time>
      </trkpt>
      <trkpt lat="45.61161" lon="5.99273">
        <ele>1129.54</ele>
        <time>2021-06-10T05:30:16Z</time>
      </trkpt>
      <trkpt lat="45.6116" lon="5.99253">
        <ele>1131.37</ele>
        <time>2021-06-10T05:30:29Z</time>
      </trkpt>
      <trkpt lat="45.6116" lon="5.99237">
        <ele>1132.71</ele>
        <time>2021-06-10T05:30:39Z</time>
      </trkpt>
      <trkpt lat="45.61159" lon="5.99234">
        <ele>1133.16</ele>
        <time>2021-06-10T05:30:41Z</time>
      </trkpt>
      <trkpt lat="45.61158" lon="5.99227">
        <ele>1133.63</ele>
        <time>2021-06-10T05:30:46Z</time>
      </trkpt>
      <trkpt lat="45.61156" lon="5.99219">
        <ele>1134.58</ele>
        <time>2021-06-10T05:30:51Z</time>
      </trkpt>
      <trkpt lat="45.61155" lon="5.99197">
        <ele>1137.33</ele>
        <time>2021-06-10T05:31:05Z</time>
      </trkpt>
      <trkpt lat="45.61148" lon="5.99173">
        <ele>1140.15</ele>
        <time>2021-06-10T05:31:20Z</time>
      </trkpt>
      <trkpt lat="45.61133" lon="5.99159">
        <ele>1142.56</ele>
        <time>2021-06-10T05:31:35Z</time>
      </trkpt>
      <trkpt lat="45.61118" lon="5.99143">
        <ele>1145.1</ele>
        <time>2021-06-10T05:31:51Z</time>
      </trkpt>
      <trkpt lat="45.61103" lon="5.99129">
        <ele>1147.28</ele>
        <time>2021-06-10T05:32:07Z</time>
      </trkpt>
      <trkpt lat="45.61093" lon="5.99121">
        <ele>1148.48</ele>
        <time>2021-06-10T05:32:21Z</time>
      </trkpt>
      <trkpt lat="45.61092" lon="5.99119">
        <ele>1148.94</ele>
        <time>2021-06-10T05:32:23Z</time>
      </trkpt>
      <trkpt lat="45.61077" lon="5.99101">
        <ele>1151.72</ele>
        <time>2021-06-10T05:32:41Z</time>
      </trkpt>
      <trkpt lat="45.6107" lon="5.99089">
        <ele>1153.09</ele>
        <time>2021-06-10T05:32:53Z</time>
      </trkpt>
      <trkpt lat="45.61063" lon="5.99075">
        <ele>1153.89</ele>
        <time>2021-06-10T05:33:05Z</time>
      </trkpt>
      <trkpt lat="45.61057" lon="5.99068">
        <ele>1155.99</ele>
        <time>2021-06-10T05:33:13Z</time>
      </trkpt>
      <trkpt lat="45.61051" lon="5.99066">
        <ele>1156.91</ele>
        <time>2021-06-10T05:33:19Z</time>
      </trkpt>
      <trkpt lat="45.61039" lon="5.99059">
        <ele>1158.06</ele>
        <time>2021-06-10T05:33:33Z</time>
      </trkpt>
      <trkpt lat="45.61015" lon="5.99048">
        <ele>1159.35</ele>
        <time>2021-06-10T05:33:54Z</time>
      </trkpt>
      <trkpt lat="45.60991" lon="5.99026">
        <ele>1159.64</ele>
        <time>2021-06-10T05:34:18Z</time>
      </trkpt>
      <trkpt lat="45.60965" lon="5.99014">
        <ele>1159.18</ele>
        <time>2021-06-10T05:34:45Z</time>
      </trkpt>
      <trkpt lat="45.60942" lon="5.99011">
        <ele>1157.93</ele>
        <time>2021-06-10T05:35:09Z</time>
      </trkpt>
      <trkpt lat="45.60912" lon="5.99003">
        <ele>1157.68</ele>
        <time>2021-06-10T05:35:34Z</time>
      </trkpt>
      <trkpt lat="45.60885" lon="5.98989">
        <ele>1158.34</ele>
        <time>2021-06-10T05:35:58Z</time>
      </trkpt>
      <trkpt lat="45.60853" lon="5.98973">
        <ele>1159.38</ele>
        <time>2021-06-10T05:36:21Z</time>
      </trkpt>
      <trkpt lat="45.60819" lon="5.98962">
        <ele>1159.76</ele>
        <time>2021-06-10T05:36:45Z</time>
      </trkpt>
      <trkpt lat="45.60782" lon="5.98955">
        <ele>1159.44</ele>
        <time>2021-06-10T05:37:07Z</time>
      </trkpt>
      <trkpt lat="45.60751" lon="5.98949">
        <ele>1160.29</ele>
        <time>2021-06-10T05:37:25Z</time>
      </trkpt>
      <trkpt lat="45.60729" lon="5.98943">
        <ele>1160.11</ele>
        <time>2021-06-10T05:37:37Z</time>
      </trkpt>
      <trkpt lat="45.607" lon="5.98939">
        <ele>1160.21</ele>
        <time>2021-06-10T05:37:53Z</time>
      </trkpt>
      <trkpt lat="45.60693" lon="5.98938">
        <ele>1159.82</ele>
        <time>2021-06-10T05:37:59Z</time>
      </trkpt>
      <trkpt lat="45.60688" lon="5.98918">
        <ele>1156.88</ele>
        <time>2021-06-10T05:38:16Z</time>
      </trkpt>
      <trkpt lat="45.60687" lon="5.98914">
        <ele>1156.07</ele>
        <time>2021-06-10T05:38:20Z</time>
      </trkpt>
      <trkpt lat="45.60685" lon="5.98907">
        <ele>1155.16</ele>
        <time>2021-06-10T05:38:26Z</time>
      </trkpt>
      <trkpt lat="45.60686" lon="5.98893">
        <ele>1154.64</ele>
        <time>2021-06-10T05:38:38Z</time>
      </trkpt>
      <trkpt lat="45.60686" lon="5.98887">
        <ele>1154.85</ele>
        <time>2021-06-10T05:38:43Z</time>
      </trkpt>
      <trkpt lat="45.60687" lon="5.98877">
        <ele>1154.16</ele>
        <time>2021-06-10T05:38:53Z</time>
      </trkpt>
      <trkpt lat="45.60685" lon="5.98858">
        <ele>1155.16</ele>
        <time>2021-06-10T05:39:07Z</time>
      </trkpt>
      <trkpt lat="45.60688" lon="5.98828">
        <ele>1153.74</ele>
        <time>2021-06-10T05:39:24Z</time>
      </trkpt>
      <trkpt lat="45.60687" lon="5.98808">
        <ele>1151.14</ele>
        <time>2021-06-10T05:39:36Z</time>
      </trkpt>
      <trkpt lat="45.6068" lon="5.98785">
        <ele>1149.84</ele>
        <time>2021-06-10T05:39:47Z</time>
      </trkpt>
      <trkpt lat="45.60679" lon="5.98782">
        <ele>1149.33</ele>
        <time>2021-06-10T05:39:49Z</time>
      </trkpt>
      <trkpt lat="45.60679" lon="5.98776">
        <ele>1148.89</ele>
        <time>2021-06-10T05:39:53Z</time>
      </trkpt>
      <trkpt lat="45.60675" lon="5.9877">
        <ele>1148.03</ele>
        <time>2021-06-10T05:39:59Z</time>
      </trkpt>
      <trkpt lat="45.60672" lon="5.98751">
        <ele>1145.83</ele>
        <time>2021-06-10T05:40:12Z</time>
      </trkpt>
      <trkpt lat="45.60669" lon="5.98747">
        <ele>1145.12</ele>
        <time>2021-06-10T05:40:17Z</time>
      </trkpt>
      <trkpt lat="45.60667" lon="5.98746">
        <ele>1145.02</ele>
        <time>2021-06-10T05:40:19Z</time>
      </trkpt>
      <trkpt lat="45.60664" lon="5.9874">
        <ele>1145.76</ele>
        <time>2021-06-10T05:40:24Z</time>
      </trkpt>
      <trkpt lat="45.60661" lon="5.98731">
        <ele>1144.6</ele>
        <time>2021-06-10T05:40:31Z</time>
      </trkpt>
      <trkpt lat="45.60659" lon="5.98723">
        <ele>1143.19</ele>
        <time>2021-06-10T05:40:36Z</time>
      </trkpt>
      <trkpt lat="45.60653" lon="5.98693">
        <ele>1139.69</ele>
        <time>2021-06-10T05:40:49Z</time>
      </trkpt>
      <trkpt lat="45.60654" lon="5.98683">
        <ele>1138.12</ele>
        <time>2021-06-10T05:40:55Z</time>
      </trkpt>
      <trkpt lat="45.60655" lon="5.98681">
        <ele>1137.52</ele>
        <time>2021-06-10T05:40:57Z</time>
      </trkpt>
      <trkpt lat="45.60656" lon="5.98674">
        <ele>1136.25</ele>
        <time>2021-06-10T05:41:02Z</time>
      </trkpt>
      <trkpt lat="45.60654" lon="5.98669">
        <ele>1135.58</ele>
        <time>2021-06-10T05:41:05Z</time>
      </trkpt>
      <trkpt lat="45.60648" lon="5.98648">
        <ele>1132.35</ele>
        <time>2021-06-10T05:41:17Z</time>
      </trkpt>
      <trkpt lat="45.6064" lon="5.98634">
        <ele>1130.21</ele>
        <time>2021-06-10T05:41:24Z</time>
      </trkpt>
      <trkpt lat="45.60634" lon="5.98615">
        <ele>1127.19</ele>
        <time>2021-06-10T05:41:37Z</time>
      </trkpt>
      <trkpt lat="45.60624" lon="5.98601">
        <ele>1124.06</ele>
        <time>2021-06-10T05:41:48Z</time>
      </trkpt>
      <trkpt lat="45.6062" lon="5.98593">
        <ele>1122.79</ele>
        <time>2021-06-10T05:41:54Z</time>
      </trkpt>
      <trkpt lat="45.6062" lon="5.98591">
        <ele>1121.4</ele>
        <time>2021-06-10T05:41:58Z</time>
      </trkpt>
      <trkpt lat="45.60619" lon="5.9859">
        <ele>1120.39</ele>
        <time>2021-06-10T05:42:00Z</time>
      </trkpt>
      <trkpt lat="45.60619" lon="5.98587">
        <ele>1120.07</ele>
        <time>2021-06-10T05:42:03Z</time>
      </trkpt>
      <trkpt lat="45.60619" lon="5.98579">
        <ele>1117.64</ele>
        <time>2021-06-10T05:42:12Z</time>
      </trkpt>
      <trkpt lat="45.6062" lon="5.98562">
        <ele>1114.04</ele>
        <time>2021-06-10T05:42:26Z</time>
      </trkpt>
      <trkpt lat="45.60619" lon="5.98553">
        <ele>1111.86</ele>
        <time>2021-06-10T05:42:38Z</time>
      </trkpt>
      <trkpt lat="45.60615" lon="5.98542">
        <ele>1108.65</ele>
        <time>2021-06-10T05:42:51Z</time>
      </trkpt>
      <trkpt lat="45.60619" lon="5.98531">
        <ele>1105.44</ele>
        <time>2021-06-10T05:43:05Z</time>
      </trkpt>
      <trkpt lat="45.60619" lon="5.98517">
        <ele>1103.38</ele>
        <time>2021-06-10T05:43:15Z</time>
      </trkpt>
      <trkpt lat="45.60619" lon="5.98512">
        <ele>1102.1</ele>
        <time>2021-06-10T05:43:19Z</time>
      </trkpt>
      <trkpt lat="45.60619" lon="5.98506">
        <ele>1100.97</ele>
        <time>2021-06-10T05:43:24Z</time>
      </trkpt>
      <trkpt lat="45.60631" lon="5.98479">
        <ele>1097.19</ele>
        <time>2021-06-10T05:43:43Z</time>
      </trkpt>
      <trkpt lat="45.60633" lon="5.98473">
        <ele>1096.68</ele>
        <time>2021-06-10T05:43:50Z</time>
      </trkpt>
      <trkpt lat="45.60637" lon="5.98468">
        <ele>1096.73</ele>
        <time>2021-06-10T05:44:00Z</time>
      </trkpt>
      <trkpt lat="45.60636" lon="5.98462">
        <ele>1096.09</ele>
        <time>2021-06-10T05:44:05Z</time>
      </trkpt>
      <trkpt lat="45.60635" lon="5.9846">
        <ele>1095.4</ele>
        <time>2021-06-10T05:44:08Z</time>
      </trkpt>
      <trkpt lat="45.60634" lon="5.98451">
        <ele>1092.14</ele>
        <time>2021-06-10T05:44:21Z</time>
      </trkpt>
      <trkpt lat="45.60637" lon="5.98445">
        <ele>1090.39</ele>
        <time>2021-06-10T05:44:31Z</time>
      </trkpt>
      <trkpt lat="45.60645" lon="5.98431">
        <ele>1087.63</ele>
        <time>2021-06-10T05:44:44Z</time>
      </trkpt>
      <trkpt lat="45.60651" lon="5.98412">
        <ele>1084.74</ele>
        <time>2021-06-10T05:44:59Z</time>
      </trkpt>
      <trkpt lat="45.60659" lon="5.98406">
        <ele>1083.53</ele>
        <time>2021-06-10T05:45:09Z</time>
      </trkpt>
      <trkpt lat="45.60671" lon="5.98402">
        <ele>1084.01</ele>
        <time>2021-06-10T05:45:20Z</time>
      </trkpt>
      <trkpt lat="45.60674" lon="5.98401">
        <ele>1084.46</ele>
        <time>2021-06-10T05:45:26Z</time>
      </trkpt>
      <trkpt lat="45.60688" lon="5.9839">
        <ele>1084.55</ele>
        <time>2021-06-10T05:45:46Z</time>
      </trkpt>
      <trkpt lat="45.60697" lon="5.98379">
        <ele>1083.24</ele>
        <time>2021-06-10T05:46:11Z</time>
      </trkpt>
      <trkpt lat="45.60697" lon="5.98378">
        <ele>1081.39</ele>
        <time>2021-06-10T05:46:17Z</time>
      </trkpt>
      <trkpt lat="45.607" lon="5.98372">
        <ele>1078.23</ele>
        <time>2021-06-10T05:46:27Z</time>
      </trkpt>
      <trkpt lat="45.60702" lon="5.98359">
        <ele>1075.48</ele>
        <time>2021-06-10T05:46:40Z</time>
      </trkpt>
      <trkpt lat="45.60708" lon="5.98354">
        <ele>1074.56</ele>
        <time>2021-06-10T05:46:47Z</time>
      </trkpt>
      <trkpt lat="45.60712" lon="5.98355">
        <ele>1074.79</ele>
        <time>2021-06-10T05:46:50Z</time>
      </trkpt>
      <trkpt lat="45.60719" lon="5.9835">
        <ele>1074.19</ele>
        <time>2021-06-10T05:47:01Z</time>
      </trkpt>
      <trkpt lat="45.6072" lon="5.98346">
        <ele>1074.19</ele>
        <time>2021-06-10T05:47:05Z</time>
      </trkpt>
      <trkpt lat="45.6072" lon="5.98344">
        <ele>1074.02</ele>
        <time>2021-06-10T05:47:09Z</time>
      </trkpt>
      <trkpt lat="45.60732" lon="5.9834">
        <ele>1072.44</ele>
        <time>2021-06-10T05:47:27Z</time>
      </trkpt>
      <trkpt lat="45.60741" lon="5.98337">
        <ele>1069.08</ele>
        <time>2021-06-10T05:47:38Z</time>
      </trkpt>
      <trkpt lat="45.60749" lon="5.98336">
        <ele>1066.59</ele>
        <time>2021-06-10T05:47:47Z</time>
      </trkpt>
      <trkpt lat="45.60752" lon="5.98331">
        <ele>1064.92</ele>
        <time>2021-06-10T05:47:51Z</time>
      </trkpt>
      <trkpt lat="45.60758" lon="5.98326">
        <ele>1062.85</ele>
        <time>2021-06-10T05:47:57Z</time>
      </trkpt>
      <trkpt lat="45.6076" lon="5.98326">
        <ele>1061.79</ele>
        <time>2021-06-10T05:48:01Z</time>
      </trkpt>
      <trkpt lat="45.60769" lon="5.98325">
        <ele>1058.66</ele>
        <time>2021-06-10T05:48:11Z</time>
      </trkpt>
      <trkpt lat="45.60774" lon="5.98325">
        <ele>1057.38</ele>
        <time>2021-06-10T05:48:16Z</time>
      </trkpt>
      <trkpt lat="45.60776" lon="5.98321">
        <ele>1054.98</ele>
        <time>2021-06-10T05:48:23Z</time>
      </trkpt>
      <trkpt lat="45.60778" lon="5.98319">
        <ele>1054.56</ele>
        <time>2021-06-10T05:48:25Z</time>
      </trkpt>
      <trkpt lat="45.60781" lon="5.98317">
        <ele>1050.81</ele>
        <time>2021-06-10T05:48:36Z</time>
      </trkpt>
      <trkpt lat="45.60784" lon="5.98315">
        <ele>1049.08</ele>
        <time>2021-06-10T05:48:41Z</time>
      </trkpt>
      <trkpt lat="45.60785" lon="5.98311">
        <ele>1047.48</ele>
        <time>2021-06-10T05:48:45Z</time>
      </trkpt>
      <trkpt lat="45.60785" lon="5.98309">
        <ele>1046.9</ele>
        <time>2021-06-10T05:48:47Z</time>
      </trkpt>
      <trkpt lat="45.60789" lon="5.983">
        <ele>1043.4</ele>
        <time>2021-06-10T05:48:59Z</time>
      </trkpt>
      <trkpt lat="45.6079" lon="5.98295">
        <ele>1040.08</ele>
        <time>2021-06-10T05:49:12Z</time>
      </trkpt>
      <trkpt lat="45.60791" lon="5.98295">
        <ele>1039.85</ele>
        <time>2021-06-10T05:49:15Z</time>
      </trkpt>
      <trkpt lat="45.60793" lon="5.98294">
        <ele>1039.23</ele>
        <time>2021-06-10T05:49:19Z</time>
      </trkpt>
      <trkpt lat="45.60792" lon="5.98292">
        <ele>1039.05</ele>
        <time>2021-06-10T05:49:21Z</time>
      </trkpt>
      <trkpt lat="45.60792" lon="5.9829">
        <ele>1037.42</ele>
        <time>2021-06-10T05:49:25Z</time>
      </trkpt>
      <trkpt lat="45.60793" lon="5.98287">
        <ele>1036.97</ele>
        <time>2021-06-10T05:49:34Z</time>
      </trkpt>
      <trkpt lat="45.60792" lon="5.9828">
        <ele>1032.83</ele>
        <time>2021-06-10T05:49:46Z</time>
      </trkpt>
      <trkpt lat="45.60793" lon="5.98278">
        <ele>1029.65</ele>
        <time>2021-06-10T05:49:58Z</time>
      </trkpt>
      <trkpt lat="45.60797" lon="5.98275">
        <ele>1029.53</ele>
        <time>2021-06-10T05:50:02Z</time>
      </trkpt>
      <trkpt lat="45.60796" lon="5.98264">
        <ele>1026.08</ele>
        <time>2021-06-10T05:50:13Z</time>
      </trkpt>
      <trkpt lat="45.60794" lon="5.98249">
        <ele>1022.74</ele>
        <time>2021-06-10T05:50:24Z</time>
      </trkpt>
      <trkpt lat="45.60795" lon="5.98246">
        <ele>1021.96</ele>
        <time>2021-06-10T05:50:27Z</time>
      </trkpt>
      <trkpt lat="45.60794" lon="5.98243">
        <ele>1021.12</ele>
        <time>2021-06-10T05:50:30Z</time>
      </trkpt>
      <trkpt lat="45.60796" lon="5.9823">
        <ele>1018.09</ele>
        <time>2021-06-10T05:50:41Z</time>
      </trkpt>
      <trkpt lat="45.60801" lon="5.98215">
        <ele>1014.26</ele>
        <time>2021-06-10T05:50:54Z</time>
      </trkpt>
      <trkpt lat="45.60806" lon="5.98207">
        <ele>1012.77</ele>
        <time>2021-06-10T05:51:00Z</time>
      </trkpt>
      <trkpt lat="45.60812" lon="5.98195">
        <ele>1009.31</ele>
        <time>2021-06-10T05:51:11Z</time>
      </trkpt>
      <trkpt lat="45.60815" lon="5.98191">
        <ele>1007.43</ele>
        <time>2021-06-10T05:51:15Z</time>
      </trkpt>
      <trkpt lat="45.60822" lon="5.98183">
        <ele>1005.81</ele>
        <time>2021-06-10T05:51:22Z</time>
      </trkpt>
      <trkpt lat="45.60821" lon="5.98168">
        <ele>1002.96</ele>
        <time>2021-06-10T05:51:32Z</time>
      </trkpt>
      <trkpt lat="45.60818" lon="5.98164">
        <ele>1002.32</ele>
        <time>2021-06-10T05:51:34Z</time>
      </trkpt>
      <trkpt lat="45.60817" lon="5.98159">
        <ele>1001.43</ele>
        <time>2021-06-10T05:51:37Z</time>
      </trkpt>
      <trkpt lat="45.60816" lon="5.98149">
        <ele>1000.13</ele>
        <time>2021-06-10T05:51:42Z</time>
      </trkpt>
      <trkpt lat="45.60816" lon="5.98146">
        <ele>999.3</ele>
        <time>2021-06-10T05:51:44Z</time>
      </trkpt>
      <trkpt lat="45.60817" lon="5.98142">
        <ele>998.29</ele>
        <time>2021-06-10T05:51:47Z</time>
      </trkpt>
      <trkpt lat="45.60816" lon="5.98137">
        <ele>997.27</ele>
        <time>2021-06-10T05:51:50Z</time>
      </trkpt>
      <trkpt lat="45.60813" lon="5.98126">
        <ele>997.75</ele>
        <time>2021-06-10T05:52:04Z</time>
      </trkpt>
      <trkpt lat="45.60813" lon="5.98125">
        <ele>998.04</ele>
        <time>2021-06-10T05:52:06Z</time>
      </trkpt>
      <trkpt lat="45.60815" lon="5.98124">
        <ele>998.45</ele>
        <time>2021-06-10T05:52:14Z</time>
      </trkpt>
      <trkpt lat="45.60812" lon="5.98124">
        <ele>998.47</ele>
        <time>2021-06-10T05:52:21Z</time>
      </trkpt>
      <trkpt lat="45.60813" lon="5.98123">
        <ele>998.82</ele>
        <time>2021-06-10T05:52:30Z</time>
      </trkpt>
      <trkpt lat="45.60818" lon="5.98119">
        <ele>996.13</ele>
        <time>2021-06-10T05:52:45Z</time>
      </trkpt>
      <trkpt lat="45.60841" lon="5.9812">
        <ele>996.31</ele>
        <time>2021-06-10T05:53:11Z</time>
      </trkpt>
      <trkpt lat="45.60842" lon="5.98121">
        <ele>998.91</ele>
        <time>2021-06-10T05:53:20Z</time>
      </trkpt>
      <trkpt lat="45.60841" lon="5.98122">
        <ele>999.73</ele>
        <time>2021-06-10T05:53:23Z</time>
      </trkpt>
      <trkpt lat="45.60841" lon="5.98124">
        <ele>1001</ele>
        <time>2021-06-10T05:53:27Z</time>
      </trkpt>
      <trkpt lat="45.60841" lon="5.98125">
        <ele>1001.98</ele>
        <time>2021-06-10T05:53:29Z</time>
      </trkpt>
      <trkpt lat="45.60854" lon="5.98132">
        <ele>1004.81</ele>
        <time>2021-06-10T05:53:43Z</time>
      </trkpt>
      <trkpt lat="45.60859" lon="5.98135">
        <ele>1008.36</ele>
        <time>2021-06-10T05:53:54Z</time>
      </trkpt>
      <trkpt lat="45.6086" lon="5.98139">
        <ele>1009.91</ele>
        <time>2021-06-10T05:54:00Z</time>
      </trkpt>
      <trkpt lat="45.60869" lon="5.98144">
        <ele>1011.6</ele>
        <time>2021-06-10T05:54:06Z</time>
      </trkpt>
      <trkpt lat="45.6087" lon="5.98148">
        <ele>1014.32</ele>
        <time>2021-06-10T05:54:12Z</time>
      </trkpt>
      <trkpt lat="45.60871" lon="5.98148">
        <ele>1014.83</ele>
        <time>2021-06-10T05:54:14Z</time>
      </trkpt>
      <trkpt lat="45.60873" lon="5.98144">
        <ele>1015.23</ele>
        <time>2021-06-10T05:54:25Z</time>
      </trkpt>
      <trkpt lat="45.60883" lon="5.98142">
        <ele>1013.72</ele>
        <time>2021-06-10T05:54:41Z</time>
      </trkpt>
      <trkpt lat="45.60906" lon="5.98129">
        <ele>1013.49</ele>
        <time>2021-06-10T05:54:54Z</time>
      </trkpt>
      <trkpt lat="45.60907" lon="5.98128">
        <ele>1015.34</ele>
        <time>2021-06-10T05:54:55Z</time>
      </trkpt>
      <trkpt lat="45.60919" lon="5.98127">
        <ele>1015.77</ele>
        <time>2021-06-10T05:55:18Z</time>
      </trkpt>
      <trkpt lat="45.60919" lon="5.98127">
        <ele>1015.14</ele>
        <time>2021-06-10T05:55:27Z</time>
      </trkpt>
      <trkpt lat="45.6092" lon="5.98128">
        <ele>1015.23</ele>
        <time>2021-06-10T05:55:35Z</time>
      </trkpt>
      <trkpt lat="45.6092" lon="5.98127">
        <ele>1015.78</ele>
        <time>2021-06-10T05:55:37Z</time>
      </trkpt>
      <trkpt lat="45.60922" lon="5.98126">
        <ele>1015.4</ele>
        <time>2021-06-10T05:55:39Z</time>
      </trkpt>
      <trkpt lat="45.6093" lon="5.98123">
        <ele>1017.75</ele>
        <time>2021-06-10T05:55:53Z</time>
      </trkpt>
      <trkpt lat="45.60932" lon="5.9812">
        <ele>1018.09</ele>
        <time>2021-06-10T05:55:58Z</time>
      </trkpt>
      <trkpt lat="45.60913" lon="5.98114">
        <ele>1018.7</ele>
        <time>2021-06-10T05:56:30Z</time>
      </trkpt>
      <trkpt lat="45.60912" lon="5.98113">
        <ele>1017.26</ele>
        <time>2021-06-10T05:56:32Z</time>
      </trkpt>
      <trkpt lat="45.60912" lon="5.9811">
        <ele>1017.49</ele>
        <time>2021-06-10T05:56:40Z</time>
      </trkpt>
      <trkpt lat="45.60911" lon="5.9811">
        <ele>1017.33</ele>
        <time>2021-06-10T05:56:44Z</time>
      </trkpt>
      <trkpt lat="45.6092" lon="5.98118">
        <ele>1017.67</ele>
        <time>2021-06-10T05:56:54Z</time>
      </trkpt>
      <trkpt lat="45.60921" lon="5.98121">
        <ele>1017.42</ele>
        <time>2021-06-10T05:56:57Z</time>
      </trkpt>
      <trkpt lat="45.60907" lon="5.98137">
        <ele>1017.6</ele>
        <time>2021-06-10T05:57:13Z</time>
      </trkpt>
      <trkpt lat="45.60901" lon="5.98134">
        <ele>1017.81</ele>
        <time>2021-06-10T05:57:39Z</time>
      </trkpt>
      <trkpt lat="45.60893" lon="5.98131">
        <ele>1017.99</ele>
        <time>2021-06-10T05:58:00Z</time>
      </trkpt>
      <trkpt lat="45.60892" lon="5.98139">
        <ele>1018.62</ele>
        <time>2021-06-10T05:58:30Z</time>
      </trkpt>
      <trkpt lat="45.60903" lon="5.9813">
        <ele>1019.49</ele>
        <time>2021-06-10T05:58:59Z</time>
      </trkpt>
      <trkpt lat="45.60904" lon="5.9813">
        <ele>1019.25</ele>
        <time>2021-06-10T05:59:03Z</time>
      </trkpt>
      <trkpt lat="45.60904" lon="5.98127">
        <ele>1019.53</ele>
        <time>2021-06-10T05:59:12Z</time>
      </trkpt>
      <trkpt lat="45.60908" lon="5.98123">
        <ele>1019.05</ele>
        <time>2021-06-10T05:59:31Z</time>
      </trkpt>
      <trkpt lat="45.60905" lon="5.98127">
        <ele>1015.78</ele>
        <time>2021-06-10T05:59:40Z</time>
      </trkpt>
      <trkpt lat="45.60898" lon="5.98127">
        <ele>1012.55</ele>
        <time>2021-06-10T05:59:50Z</time>
      </trkpt>
      <trkpt lat="45.60897" lon="5.98127">
        <ele>1011.98</ele>
        <time>2021-06-10T05:59:52Z</time>
      </trkpt>
      <trkpt lat="45.60896" lon="5.98127">
        <ele>1011.11</ele>
        <time>2021-06-10T05:59:54Z</time>
      </trkpt>
      <trkpt lat="45.60894" lon="5.98128">
        <ele>1011.19</ele>
        <time>2021-06-10T05:59:56Z</time>
      </trkpt>
      <trkpt lat="45.60886" lon="5.9813">
        <ele>1009.87</ele>
        <time>2021-06-10T06:00:00Z</time>
      </trkpt>
      <trkpt lat="45.60877" lon="5.98122">
        <ele>1005.92</ele>
        <time>2021-06-10T06:00:13Z</time>
      </trkpt>
      <trkpt lat="45.6087" lon="5.98116">
        <ele>1003.46</ele>
        <time>2021-06-10T06:00:25Z</time>
      </trkpt>
      <trkpt lat="45.60869" lon="5.98112">
        <ele>1002.45</ele>
        <time>2021-06-10T06:00:30Z</time>
      </trkpt>
      <trkpt lat="45.60871" lon="5.98109">
        <ele>1001.27</ele>
        <time>2021-06-10T06:00:36Z</time>
      </trkpt>
      <trkpt lat="45.60868" lon="5.98101">
        <ele>998.22</ele>
        <time>2021-06-10T06:00:52Z</time>
      </trkpt>
      <trkpt lat="45.60866" lon="5.98102">
        <ele>996.65</ele>
        <time>2021-06-10T06:00:56Z</time>
      </trkpt>
      <trkpt lat="45.60858" lon="5.98104">
        <ele>992.48</ele>
        <time>2021-06-10T06:01:12Z</time>
      </trkpt>
      <trkpt lat="45.60855" lon="5.98104">
        <ele>991.29</ele>
        <time>2021-06-10T06:01:16Z</time>
      </trkpt>
      <trkpt lat="45.60851" lon="5.98105">
        <ele>989.67</ele>
        <time>2021-06-10T06:01:21Z</time>
      </trkpt>
      <trkpt lat="45.60849" lon="5.98103">
        <ele>988.75</ele>
        <time>2021-06-10T06:01:24Z</time>
      </trkpt>
      <trkpt lat="45.60843" lon="5.98101">
        <ele>985.35</ele>
        <time>2021-06-10T06:01:34Z</time>
      </trkpt>
      <trkpt lat="45.60842" lon="5.981">
        <ele>984.98</ele>
        <time>2021-06-10T06:01:36Z</time>
      </trkpt>
      <trkpt lat="45.6084" lon="5.98099">
        <ele>984.17</ele>
        <time>2021-06-10T06:01:39Z</time>
      </trkpt>
      <trkpt lat="45.60837" lon="5.98099">
        <ele>984.68</ele>
        <time>2021-06-10T06:01:42Z</time>
      </trkpt>
      <trkpt lat="45.60838" lon="5.98095">
        <ele>984.5</ele>
        <time>2021-06-10T06:01:45Z</time>
      </trkpt>
      <trkpt lat="45.60838" lon="5.98085">
        <ele>981.93</ele>
        <time>2021-06-10T06:01:58Z</time>
      </trkpt>
      <trkpt lat="45.6084" lon="5.98081">
        <ele>982.93</ele>
        <time>2021-06-10T06:02:12Z</time>
      </trkpt>
      <trkpt lat="45.60838" lon="5.98083">
        <ele>982.91</ele>
        <time>2021-06-10T06:02:18Z</time>
      </trkpt>
      <trkpt lat="45.60846" lon="5.98083">
        <ele>983.13</ele>
        <time>2021-06-10T06:02:31Z</time>
      </trkpt>
      <trkpt lat="45.60847" lon="5.98084">
        <ele>983.31</ele>
        <time>2021-06-10T06:02:33Z</time>
      </trkpt>
      <trkpt lat="45.60856" lon="5.98086">
        <ele>983.77</ele>
        <time>2021-06-10T06:02:49Z</time>
      </trkpt>
      <trkpt lat="45.60854" lon="5.98086">
        <ele>983.43</ele>
        <time>2021-06-10T06:02:55Z</time>
      </trkpt>
      <trkpt lat="45.60855" lon="5.98085">
        <ele>983.99</ele>
        <time>2021-06-10T06:02:57Z</time>
      </trkpt>
      <trkpt lat="45.60856" lon="5.98083">
        <ele>986.22</ele>
        <time>2021-06-10T06:03:02Z</time>
      </trkpt>
      <trkpt lat="45.60861" lon="5.9808">
        <ele>987.57</ele>
        <time>2021-06-10T06:03:08Z</time>
      </trkpt>
      <trkpt lat="45.60863" lon="5.98079">
        <ele>990.29</ele>
        <time>2021-06-10T06:03:15Z</time>
      </trkpt>
      <trkpt lat="45.60864" lon="5.98074">
        <ele>993.34</ele>
        <time>2021-06-10T06:03:26Z</time>
      </trkpt>
      <trkpt lat="45.60863" lon="5.98072">
        <ele>995.37</ele>
        <time>2021-06-10T06:03:32Z</time>
      </trkpt>
      <trkpt lat="45.60862" lon="5.98064">
        <ele>997.21</ele>
        <time>2021-06-10T06:03:37Z</time>
      </trkpt>
      <trkpt lat="45.60849" lon="5.98038">
        <ele>1000.43</ele>
        <time>2021-06-10T06:03:51Z</time>
      </trkpt>
      <trkpt lat="45.6084" lon="5.98023">
        <ele>1002.16</ele>
        <time>2021-06-10T06:03:59Z</time>
      </trkpt>
      <trkpt lat="45.60839" lon="5.98021">
        <ele>1002.3</ele>
        <time>2021-06-10T06:04:02Z</time>
      </trkpt>
      <trkpt lat="45.60833" lon="5.98007">
        <ele>1002.72</ele>
        <time>2021-06-10T06:04:11Z</time>
      </trkpt>
      <trkpt lat="45.60829" lon="5.97995">
        <ele>1003.94</ele>
        <time>2021-06-10T06:04:18Z</time>
      </trkpt>
      <trkpt lat="45.60828" lon="5.97974">
        <ele>1006.28</ele>
        <time>2021-06-10T06:04:29Z</time>
      </trkpt>
      <trkpt lat="45.60827" lon="5.97965">
        <ele>1007.36</ele>
        <time>2021-06-10T06:04:34Z</time>
      </trkpt>
      <trkpt lat="45.60819" lon="5.97934">
        <ele>1011.11</ele>
        <time>2021-06-10T06:04:52Z</time>
      </trkpt>
      <trkpt lat="45.60817" lon="5.97918">
        <ele>1014.24</ele>
        <time>2021-06-10T06:05:09Z</time>
      </trkpt>
      <trkpt lat="45.60813" lon="5.97895">
        <ele>1017.44</ele>
        <time>2021-06-10T06:05:34Z</time>
      </trkpt>
      <trkpt lat="45.60814" lon="5.97891">
        <ele>1018.53</ele>
        <time>2021-06-10T06:05:39Z</time>
      </trkpt>
      <trkpt lat="45.60815" lon="5.97877">
        <ele>1020.89</ele>
        <time>2021-06-10T06:05:50Z</time>
      </trkpt>
      <trkpt lat="45.60818" lon="5.97872">
        <ele>1022</ele>
        <time>2021-06-10T06:05:59Z</time>
      </trkpt>
      <trkpt lat="45.60817" lon="5.97867">
        <ele>1021.48</ele>
        <time>2021-06-10T06:06:06Z</time>
      </trkpt>
      <trkpt lat="45.60817" lon="5.97862">
        <ele>1022.7</ele>
        <time>2021-06-10T06:06:13Z</time>
      </trkpt>
      <trkpt lat="45.60819" lon="5.97861">
        <ele>1026.33</ele>
        <time>2021-06-10T06:06:25Z</time>
      </trkpt>
      <trkpt lat="45.60819" lon="5.97865">
        <ele>1027.67</ele>
        <time>2021-06-10T06:06:33Z</time>
      </trkpt>
      <trkpt lat="45.60822" lon="5.97872">
        <ele>1029.62</ele>
        <time>2021-06-10T06:06:44Z</time>
      </trkpt>
      <trkpt lat="45.6082" lon="5.97876">
        <ele>1030.67</ele>
        <time>2021-06-10T06:06:52Z</time>
      </trkpt>
      <trkpt lat="45.6083" lon="5.97886">
        <ele>1032.22</ele>
        <time>2021-06-10T06:07:02Z</time>
      </trkpt>
      <trkpt lat="45.60832" lon="5.97887">
        <ele>1032.63</ele>
        <time>2021-06-10T06:07:04Z</time>
      </trkpt>
      <trkpt lat="45.60841" lon="5.97892">
        <ele>1033.6</ele>
        <time>2021-06-10T06:07:11Z</time>
      </trkpt>
      <trkpt lat="45.6085" lon="5.97901">
        <ele>1034.71</ele>
        <time>2021-06-10T06:07:22Z</time>
      </trkpt>
      <trkpt lat="45.60852" lon="5.97904">
        <ele>1034.28</ele>
        <time>2021-06-10T06:07:25Z</time>
      </trkpt>
      <trkpt lat="45.60853" lon="5.97907">
        <ele>1034.14</ele>
        <time>2021-06-10T06:07:28Z</time>
      </trkpt>
      <trkpt lat="45.60856" lon="5.97913">
        <ele>1035.55</ele>
        <time>2021-06-10T06:07:34Z</time>
      </trkpt>
      <trkpt lat="45.6086" lon="5.97921">
        <ele>1035.41</ele>
        <time>2021-06-10T06:07:39Z</time>
      </trkpt>
      <trkpt lat="45.60863" lon="5.97932">
        <ele>1038.37</ele>
        <time>2021-06-10T06:07:51Z</time>
      </trkpt>
      <trkpt lat="45.60873" lon="5.97948">
        <ele>1040.11</ele>
        <time>2021-06-10T06:08:05Z</time>
      </trkpt>
      <trkpt lat="45.60881" lon="5.97966">
        <ele>1042.39</ele>
        <time>2021-06-10T06:08:21Z</time>
      </trkpt>
      <trkpt lat="45.60883" lon="5.9797">
        <ele>1043.65</ele>
        <time>2021-06-10T06:08:30Z</time>
      </trkpt>
      <trkpt lat="45.60891" lon="5.97973">
        <ele>1045.08</ele>
        <time>2021-06-10T06:08:37Z</time>
      </trkpt>
      <trkpt lat="45.6092" lon="5.97991">
        <ele>1047.94</ele>
        <time>2021-06-10T06:08:57Z</time>
      </trkpt>
      <trkpt lat="45.6093" lon="5.98005">
        <ele>1048.95</ele>
        <time>2021-06-10T06:09:06Z</time>
      </trkpt>
      <trkpt lat="45.6094" lon="5.98002">
        <ele>1052.01</ele>
        <time>2021-06-10T06:09:24Z</time>
      </trkpt>
      <trkpt lat="45.60941" lon="5.98003">
        <ele>1051.94</ele>
        <time>2021-06-10T06:09:25Z</time>
      </trkpt>
      <trkpt lat="45.60946" lon="5.98008">
        <ele>1052.18</ele>
        <time>2021-06-10T06:09:29Z</time>
      </trkpt>
      <trkpt lat="45.60953" lon="5.98018">
        <ele>1055.05</ele>
        <time>2021-06-10T06:09:44Z</time>
      </trkpt>
      <trkpt lat="45.60959" lon="5.98017">
        <ele>1056.23</ele>
        <time>2021-06-10T06:09:51Z</time>
      </trkpt>
      <trkpt lat="45.60967" lon="5.98015">
        <ele>1057.21</ele>
        <time>2021-06-10T06:10:01Z</time>
      </trkpt>
      <trkpt lat="45.60971" lon="5.98001">
        <ele>1059.28</ele>
        <time>2021-06-10T06:10:16Z</time>
      </trkpt>
      <trkpt lat="45.6097" lon="5.97994">
        <ele>1060.79</ele>
        <time>2021-06-10T06:10:22Z</time>
      </trkpt>
      <trkpt lat="45.60968" lon="5.9798">
        <ele>1061.09</ele>
        <time>2021-06-10T06:10:30Z</time>
      </trkpt>
      <trkpt lat="45.60966" lon="5.97971">
        <ele>1061.99</ele>
        <time>2021-06-10T06:10:36Z</time>
      </trkpt>
      <trkpt lat="45.60964" lon="5.9797">
        <ele>1061.93</ele>
        <time>2021-06-10T06:10:39Z</time>
      </trkpt>
      <trkpt lat="45.60958" lon="5.9796">
        <ele>1062.74</ele>
        <time>2021-06-10T06:10:46Z</time>
      </trkpt>
      <trkpt lat="45.60956" lon="5.97957">
        <ele>1063.6</ele>
        <time>2021-06-10T06:10:49Z</time>
      </trkpt>
      <trkpt lat="45.60952" lon="5.9795">
        <ele>1064.84</ele>
        <time>2021-06-10T06:10:56Z</time>
      </trkpt>
      <trkpt lat="45.60951" lon="5.97941">
        <ele>1064.73</ele>
        <time>2021-06-10T06:11:04Z</time>
      </trkpt>
      <trkpt lat="45.6095" lon="5.97936">
        <ele>1064.77</ele>
        <time>2021-06-10T06:11:08Z</time>
      </trkpt>
      <trkpt lat="45.60947" lon="5.97932">
        <ele>1065.64</ele>
        <time>2021-06-10T06:11:12Z</time>
      </trkpt>
      <trkpt lat="45.60942" lon="5.97918">
        <ele>1066.11</ele>
        <time>2021-06-10T06:11:22Z</time>
      </trkpt>
      <trkpt lat="45.60933" lon="5.97901">
        <ele>1067.33</ele>
        <time>2021-06-10T06:11:33Z</time>
      </trkpt>
      <trkpt lat="45.60927" lon="5.97888">
        <ele>1070.65</ele>
        <time>2021-06-10T06:11:45Z</time>
      </trkpt>
      <trkpt lat="45.60927" lon="5.97888">
        <ele>1071.24</ele>
        <time>2021-06-10T06:11:48Z</time>
      </trkpt>
      <trkpt lat="45.60918" lon="5.9789">
        <ele>1074.92</ele>
        <time>2021-06-10T06:12:03Z</time>
      </trkpt>
      <trkpt lat="45.60922" lon="5.97898">
        <ele>1077.17</ele>
        <time>2021-06-10T06:12:17Z</time>
      </trkpt>
      <trkpt lat="45.6093" lon="5.97906">
        <ele>1078.37</ele>
        <time>2021-06-10T06:12:38Z</time>
      </trkpt>
      <trkpt lat="45.60933" lon="5.97913">
        <ele>1080.63</ele>
        <time>2021-06-10T06:12:53Z</time>
      </trkpt>
      <trkpt lat="45.60933" lon="5.97914">
        <ele>1081.26</ele>
        <time>2021-06-10T06:12:55Z</time>
      </trkpt>
      <trkpt lat="45.6094" lon="5.97921">
        <ele>1081.56</ele>
        <time>2021-06-10T06:13:09Z</time>
      </trkpt>
      <trkpt lat="45.60941" lon="5.97921">
        <ele>1081.55</ele>
        <time>2021-06-10T06:13:11Z</time>
      </trkpt>
      <trkpt lat="45.60949" lon="5.97912">
        <ele>1078.21</ele>
        <time>2021-06-10T06:13:24Z</time>
      </trkpt>
      <trkpt lat="45.6095" lon="5.97906">
        <ele>1078.54</ele>
        <time>2021-06-10T06:13:37Z</time>
      </trkpt>
      <trkpt lat="45.60952" lon="5.97903">
        <ele>1079.97</ele>
        <time>2021-06-10T06:13:41Z</time>
      </trkpt>
      <trkpt lat="45.60952" lon="5.97899">
        <ele>1080.19</ele>
        <time>2021-06-10T06:13:45Z</time>
      </trkpt>
      <trkpt lat="45.60953" lon="5.97897">
        <ele>1081.39</ele>
        <time>2021-06-10T06:13:47Z</time>
      </trkpt>
      <trkpt lat="45.60955" lon="5.97883">
        <ele>1083.84</ele>
        <time>2021-06-10T06:14:01Z</time>
      </trkpt>
      <trkpt lat="45.60954" lon="5.97878">
        <ele>1085.77</ele>
        <time>2021-06-10T06:14:08Z</time>
      </trkpt>
      <trkpt lat="45.60953" lon="5.97874">
        <ele>1086.37</ele>
        <time>2021-06-10T06:14:11Z</time>
      </trkpt>
      <trkpt lat="45.60952" lon="5.97871">
        <ele>1087.91</ele>
        <time>2021-06-10T06:14:17Z</time>
      </trkpt>
      <trkpt lat="45.60948" lon="5.97872">
        <ele>1089.03</ele>
        <time>2021-06-10T06:14:22Z</time>
      </trkpt>
      <trkpt lat="45.60947" lon="5.97873">
        <ele>1089.16</ele>
        <time>2021-06-10T06:14:24Z</time>
      </trkpt>
      <trkpt lat="45.60941" lon="5.97878">
        <ele>1092.14</ele>
        <time>2021-06-10T06:14:40Z</time>
      </trkpt>
      <trkpt lat="45.60946" lon="5.97882">
        <ele>1095.62</ele>
        <time>2021-06-10T06:14:56Z</time>
      </trkpt>
      <trkpt lat="45.60952" lon="5.97884">
        <ele>1097.05</ele>
        <time>2021-06-10T06:15:15Z</time>
      </trkpt>
      <trkpt lat="45.60957" lon="5.97883">
        <ele>1100.25</ele>
        <time>2021-06-10T06:15:28Z</time>
      </trkpt>
      <trkpt lat="45.60962" lon="5.9788">
        <ele>1103.38</ele>
        <time>2021-06-10T06:15:45Z</time>
      </trkpt>
      <trkpt lat="45.60962" lon="5.97881">
        <ele>1105.18</ele>
        <time>2021-06-10T06:15:56Z</time>
      </trkpt>
      <trkpt lat="45.60964" lon="5.97883">
        <ele>1106.29</ele>
        <time>2021-06-10T06:16:04Z</time>
      </trkpt>
      <trkpt lat="45.60964" lon="5.97884">
        <ele>1107.63</ele>
        <time>2021-06-10T06:16:25Z</time>
      </trkpt>
      <trkpt lat="45.60967" lon="5.97884">
        <ele>1108.25</ele>
        <time>2021-06-10T06:16:31Z</time>
      </trkpt>
      <trkpt lat="45.60973" lon="5.97882">
        <ele>1109.62</ele>
        <time>2021-06-10T06:16:37Z</time>
      </trkpt>
      <trkpt lat="45.60978" lon="5.97878">
        <ele>1110.48</ele>
        <time>2021-06-10T06:16:45Z</time>
      </trkpt>
      <trkpt lat="45.60976" lon="5.97881">
        <ele>1109.86</ele>
        <time>2021-06-10T06:16:49Z</time>
      </trkpt>
      <trkpt lat="45.60973" lon="5.97879">
        <ele>1111.36</ele>
        <time>2021-06-10T06:16:53Z</time>
      </trkpt>
      <trkpt lat="45.60967" lon="5.97871">
        <ele>1111.84</ele>
        <time>2021-06-10T06:17:13Z</time>
      </trkpt>
      <trkpt lat="45.60967" lon="5.97871">
        <ele>1111.83</ele>
        <time>2021-06-10T06:17:14Z</time>
      </trkpt>
      <trkpt lat="45.60944" lon="5.97856">
        <ele>1113.93</ele>
        <time>2021-06-10T06:17:55Z</time>
      </trkpt>
      <trkpt lat="45.60935" lon="5.97846">
        <ele>1112.23</ele>
        <time>2021-06-10T06:18:25Z</time>
      </trkpt>
      <trkpt lat="45.60934" lon="5.97857">
        <ele>1113.93</ele>
        <time>2021-06-10T06:18:35Z</time>
      </trkpt>
      <trkpt lat="45.60937" lon="5.9787">
        <ele>1114.36</ele>
        <time>2021-06-10T06:18:45Z</time>
      </trkpt>
      <trkpt lat="45.60943" lon="5.97871">
        <ele>1115.87</ele>
        <time>2021-06-10T06:19:00Z</time>
      </trkpt>
      <trkpt lat="45.60922" lon="5.97855">
        <ele>1114.36</ele>
        <time>2021-06-10T06:19:47Z</time>
      </trkpt>
      <trkpt lat="45.60914" lon="5.97848">
        <ele>1113.71</ele>
        <time>2021-06-10T06:20:05Z</time>
      </trkpt>
      <trkpt lat="45.60907" lon="5.97848">
        <ele>1112.93</ele>
        <time>2021-06-10T06:20:22Z</time>
      </trkpt>
      <trkpt lat="45.60906" lon="5.97848">
        <ele>1112.47</ele>
        <time>2021-06-10T06:20:35Z</time>
      </trkpt>
      <trkpt lat="45.60929" lon="5.97894">
        <ele>1113.5</ele>
        <time>2021-06-10T06:21:10Z</time>
      </trkpt>
      <trkpt lat="45.60932" lon="5.97896">
        <ele>1113.1</ele>
        <time>2021-06-10T06:21:17Z</time>
      </trkpt>
      <trkpt lat="45.60947" lon="5.97891">
        <ele>1111.82</ele>
        <time>2021-06-10T06:21:57Z</time>
      </trkpt>
      <trkpt lat="45.60948" lon="5.97889">
        <ele>1111.8</ele>
        <time>2021-06-10T06:21:59Z</time>
      </trkpt>
      <trkpt lat="45.60955" lon="5.97876">
        <ele>1111.89</ele>
        <time>2021-06-10T06:22:17Z</time>
      </trkpt>
      <trkpt lat="45.60952" lon="5.9787">
        <ele>1110.49</ele>
        <time>2021-06-10T06:22:23Z</time>
      </trkpt>
      <trkpt lat="45.60969" lon="5.97876">
        <ele>1109.47</ele>
        <time>2021-06-10T06:22:53Z</time>
      </trkpt>
      <trkpt lat="45.60977" lon="5.97866">
        <ele>1109.45</ele>
        <time>2021-06-10T06:23:02Z</time>
      </trkpt>
      <trkpt lat="45.60989" lon="5.97839">
        <ele>1106.8</ele>
        <time>2021-06-10T06:23:43Z</time>
      </trkpt>
      <trkpt lat="45.60986" lon="5.97841">
        <ele>1103.56</ele>
        <time>2021-06-10T06:23:54Z</time>
      </trkpt>
      <trkpt lat="45.60981" lon="5.97838">
        <ele>1100.04</ele>
        <time>2021-06-10T06:24:06Z</time>
      </trkpt>
      <trkpt lat="45.60981" lon="5.97837">
        <ele>1099.63</ele>
        <time>2021-06-10T06:24:08Z</time>
      </trkpt>
      <trkpt lat="45.60978" lon="5.97844">
        <ele>1097.51</ele>
        <time>2021-06-10T06:24:19Z</time>
      </trkpt>
      <trkpt lat="45.60974" lon="5.97847">
        <ele>1095.32</ele>
        <time>2021-06-10T06:24:38Z</time>
      </trkpt>
      <trkpt lat="45.60967" lon="5.97846">
        <ele>1091.9</ele>
        <time>2021-06-10T06:24:58Z</time>
      </trkpt>
      <trkpt lat="45.60966" lon="5.97841">
        <ele>1089.15</ele>
        <time>2021-06-10T06:25:07Z</time>
      </trkpt>
      <trkpt lat="45.60966" lon="5.97846">
        <ele>1088.64</ele>
        <time>2021-06-10T06:25:11Z</time>
      </trkpt>
      <trkpt lat="45.60967" lon="5.97849">
        <ele>1086.65</ele>
        <time>2021-06-10T06:25:17Z</time>
      </trkpt>
      <trkpt lat="45.60967" lon="5.97855">
        <ele>1083.43</ele>
        <time>2021-06-10T06:25:25Z</time>
      </trkpt>
      <trkpt lat="45.60968" lon="5.97852">
        <ele>1082.08</ele>
        <time>2021-06-10T06:25:30Z</time>
      </trkpt>
      <trkpt lat="45.60983" lon="5.97838">
        <ele>1081.05</ele>
        <time>2021-06-10T06:25:39Z</time>
      </trkpt>
      <trkpt lat="45.60983" lon="5.97836">
        <ele>1080.38</ele>
        <time>2021-06-10T06:25:42Z</time>
      </trkpt>
      <trkpt lat="45.60975" lon="5.97839">
        <ele>1076.96</ele>
        <time>2021-06-10T06:25:59Z</time>
      </trkpt>
      <trkpt lat="45.6097" lon="5.97851">
        <ele>1073.8</ele>
        <time>2021-06-10T06:26:07Z</time>
      </trkpt>
      <trkpt lat="45.6097" lon="5.97854">
        <ele>1072.32</ele>
        <time>2021-06-10T06:26:12Z</time>
      </trkpt>
      <trkpt lat="45.60963" lon="5.97859">
        <ele>1070.79</ele>
        <time>2021-06-10T06:26:25Z</time>
      </trkpt>
      <trkpt lat="45.60956" lon="5.97855">
        <ele>1067.7</ele>
        <time>2021-06-10T06:26:39Z</time>
      </trkpt>
      <trkpt lat="45.60954" lon="5.97854">
        <ele>1066.71</ele>
        <time>2021-06-10T06:26:43Z</time>
      </trkpt>
      <trkpt lat="45.60947" lon="5.97848">
        <ele>1063.64</ele>
        <time>2021-06-10T06:27:08Z</time>
      </trkpt>
      <trkpt lat="45.60942" lon="5.97844">
        <ele>1062.49</ele>
        <time>2021-06-10T06:27:21Z</time>
      </trkpt>
      <trkpt lat="45.60936" lon="5.97852">
        <ele>1058.44</ele>
        <time>2021-06-10T06:27:32Z</time>
      </trkpt>
      <trkpt lat="45.60932" lon="5.97861">
        <ele>1055.26</ele>
        <time>2021-06-10T06:27:41Z</time>
      </trkpt>
      <trkpt lat="45.60933" lon="5.97867">
        <ele>1054.22</ele>
        <time>2021-06-10T06:28:00Z</time>
      </trkpt>
      <trkpt lat="45.60931" lon="5.9787">
        <ele>1052.54</ele>
        <time>2021-06-10T06:28:10Z</time>
      </trkpt>
      <trkpt lat="45.6093" lon="5.97875">
        <ele>1052.13</ele>
        <time>2021-06-10T06:28:19Z</time>
      </trkpt>
      <trkpt lat="45.60931" lon="5.9788">
        <ele>1052.06</ele>
        <time>2021-06-10T06:28:23Z</time>
      </trkpt>
      <trkpt lat="45.60927" lon="5.9789">
        <ele>1048.75</ele>
        <time>2021-06-10T06:28:36Z</time>
      </trkpt>
      <trkpt lat="45.60925" lon="5.97884">
        <ele>1045.72</ele>
        <time>2021-06-10T06:28:49Z</time>
      </trkpt>
      <trkpt lat="45.60922" lon="5.9788">
        <ele>1042.6</ele>
        <time>2021-06-10T06:28:57Z</time>
      </trkpt>
      <trkpt lat="45.60916" lon="5.97871">
        <ele>1039.23</ele>
        <time>2021-06-10T06:29:07Z</time>
      </trkpt>
      <trkpt lat="45.60906" lon="5.97875">
        <ele>1036.2</ele>
        <time>2021-06-10T06:29:18Z</time>
      </trkpt>
      <trkpt lat="45.60903" lon="5.97883">
        <ele>1032.91</ele>
        <time>2021-06-10T06:29:28Z</time>
      </trkpt>
      <trkpt lat="45.60902" lon="5.97895">
        <ele>1033.34</ele>
        <time>2021-06-10T06:29:35Z</time>
      </trkpt>
      <trkpt lat="45.60901" lon="5.97915">
        <ele>1031.55</ele>
        <time>2021-06-10T06:29:51Z</time>
      </trkpt>
      <trkpt lat="45.60908" lon="5.97935">
        <ele>1029.02</ele>
        <time>2021-06-10T06:30:10Z</time>
      </trkpt>
      <trkpt lat="45.60921" lon="5.9795">
        <ele>1027.82</ele>
        <time>2021-06-10T06:30:30Z</time>
      </trkpt>
      <trkpt lat="45.60923" lon="5.97955">
        <ele>1026.72</ele>
        <time>2021-06-10T06:30:33Z</time>
      </trkpt>
      <trkpt lat="45.60925" lon="5.97972">
        <ele>1024.41</ele>
        <time>2021-06-10T06:30:44Z</time>
      </trkpt>
      <trkpt lat="45.60928" lon="5.97993">
        <ele>1022.1</ele>
        <time>2021-06-10T06:31:05Z</time>
      </trkpt>
      <trkpt lat="45.60931" lon="5.98002">
        <ele>1018.76</ele>
        <time>2021-06-10T06:31:16Z</time>
      </trkpt>
      <trkpt lat="45.60931" lon="5.97998">
        <ele>1015.68</ele>
        <time>2021-06-10T06:31:33Z</time>
      </trkpt>
      <trkpt lat="45.60926" lon="5.97986">
        <ele>1013.2</ele>
        <time>2021-06-10T06:31:50Z</time>
      </trkpt>
      <trkpt lat="45.60915" lon="5.97972">
        <ele>1010.09</ele>
        <time>2021-06-10T06:32:02Z</time>
      </trkpt>
      <trkpt lat="45.60899" lon="5.9796">
        <ele>1007.03</ele>
        <time>2021-06-10T06:32:17Z</time>
      </trkpt>
      <trkpt lat="45.6089" lon="5.97944">
        <ele>1004.66</ele>
        <time>2021-06-10T06:32:31Z</time>
      </trkpt>
      <trkpt lat="45.60879" lon="5.97923">
        <ele>1001.42</ele>
        <time>2021-06-10T06:32:47Z</time>
      </trkpt>
      <trkpt lat="45.60862" lon="5.97908">
        <ele>998.34</ele>
        <time>2021-06-10T06:33:04Z</time>
      </trkpt>
      <trkpt lat="45.60858" lon="5.97901">
        <ele>997.34</ele>
        <time>2021-06-10T06:33:12Z</time>
      </trkpt>
      <trkpt lat="45.60854" lon="5.97889">
        <ele>997.04</ele>
        <time>2021-06-10T06:33:33Z</time>
      </trkpt>
      <trkpt lat="45.6085" lon="5.97878">
        <ele>994.02</ele>
        <time>2021-06-10T06:33:50Z</time>
      </trkpt>
      <trkpt lat="45.60838" lon="5.97863">
        <ele>990.98</ele>
        <time>2021-06-10T06:34:06Z</time>
      </trkpt>
      <trkpt lat="45.60827" lon="5.97846">
        <ele>987.53</ele>
        <time>2021-06-10T06:34:23Z</time>
      </trkpt>
      <trkpt lat="45.60815" lon="5.97833">
        <ele>986.8</ele>
        <time>2021-06-10T06:34:36Z</time>
      </trkpt>
      <trkpt lat="45.60803" lon="5.97805">
        <ele>989.59</ele>
        <time>2021-06-10T06:34:59Z</time>
      </trkpt>
      <trkpt lat="45.60801" lon="5.9777">
        <ele>992.46</ele>
        <time>2021-06-10T06:35:21Z</time>
      </trkpt>
      <trkpt lat="45.60801" lon="5.97766">
        <ele>993.73</ele>
        <time>2021-06-10T06:35:25Z</time>
      </trkpt>
      <trkpt lat="45.60811" lon="5.97715">
        <ele>996.36</ele>
        <time>2021-06-10T06:35:46Z</time>
      </trkpt>
      <trkpt lat="45.60815" lon="5.97688">
        <ele>999.8</ele>
        <time>2021-06-10T06:35:59Z</time>
      </trkpt>
      <trkpt lat="45.60815" lon="5.97687">
        <ele>999.26</ele>
        <time>2021-06-10T06:36:00Z</time>
      </trkpt>
      <trkpt lat="45.60819" lon="5.97667">
        <ele>1001.27</ele>
        <time>2021-06-10T06:36:18Z</time>
      </trkpt>
      <trkpt lat="45.60819" lon="5.97636">
        <ele>1002.83</ele>
        <time>2021-06-10T06:36:40Z</time>
      </trkpt>
      <trkpt lat="45.60815" lon="5.97606">
        <ele>1005.76</ele>
        <time>2021-06-10T06:37:02Z</time>
      </trkpt>
      <trkpt lat="45.60817" lon="5.97573">
        <ele>1009.15</ele>
        <time>2021-06-10T06:37:23Z</time>
      </trkpt>
      <trkpt lat="45.60822" lon="5.97551">
        <ele>1012.3</ele>
        <time>2021-06-10T06:37:42Z</time>
      </trkpt>
      <trkpt lat="45.60825" lon="5.97544">
        <ele>1013.34</ele>
        <time>2021-06-10T06:37:50Z</time>
      </trkpt>
      <trkpt lat="45.60832" lon="5.97511">
        <ele>1015.31</ele>
        <time>2021-06-10T06:38:11Z</time>
      </trkpt>
      <trkpt lat="45.60841" lon="5.97482">
        <ele>1018.28</ele>
        <time>2021-06-10T06:38:32Z</time>
      </trkpt>
      <trkpt lat="45.60843" lon="5.97449">
        <ele>1021.36</ele>
        <time>2021-06-10T06:38:49Z</time>
      </trkpt>
      <trkpt lat="45.60846" lon="5.97423">
        <ele>1023.89</ele>
        <time>2021-06-10T06:39:10Z</time>
      </trkpt>
      <trkpt lat="45.60845" lon="5.97395">
        <ele>1026.39</ele>
        <time>2021-06-10T06:39:30Z</time>
      </trkpt>
      <trkpt lat="45.6085" lon="5.9736">
        <ele>1029.41</ele>
        <time>2021-06-10T06:39:52Z</time>
      </trkpt>
      <trkpt lat="45.60849" lon="5.97324">
        <ele>1032.4</ele>
        <time>2021-06-10T06:40:19Z</time>
      </trkpt>
      <trkpt lat="45.60849" lon="5.97316">
        <ele>1033.19</ele>
        <time>2021-06-10T06:40:26Z</time>
      </trkpt>
      <trkpt lat="45.60844" lon="5.97277">
        <ele>1035.66</ele>
        <time>2021-06-10T06:40:50Z</time>
      </trkpt>
      <trkpt lat="45.60838" lon="5.97256">
        <ele>1037.76</ele>
        <time>2021-06-10T06:41:09Z</time>
      </trkpt>
      <trkpt lat="45.6083" lon="5.97233">
        <ele>1041.19</ele>
        <time>2021-06-10T06:41:28Z</time>
      </trkpt>
      <trkpt lat="45.60819" lon="5.97196">
        <ele>1043.98</ele>
        <time>2021-06-10T06:41:53Z</time>
      </trkpt>
      <trkpt lat="45.60812" lon="5.97163">
        <ele>1046.77</ele>
        <time>2021-06-10T06:42:17Z</time>
      </trkpt>
      <trkpt lat="45.60807" lon="5.97132">
        <ele>1049.46</ele>
        <time>2021-06-10T06:42:37Z</time>
      </trkpt>
      <trkpt lat="45.60806" lon="5.97112">
        <ele>1051.41</ele>
        <time>2021-06-10T06:42:58Z</time>
      </trkpt>
      <trkpt lat="45.60803" lon="5.97087">
        <ele>1054.94</ele>
        <time>2021-06-10T06:43:17Z</time>
      </trkpt>
      <trkpt lat="45.60796" lon="5.97049">
        <ele>1056.63</ele>
        <time>2021-06-10T06:43:39Z</time>
      </trkpt>
      <trkpt lat="45.60783" lon="5.97029">
        <ele>1057.92</ele>
        <time>2021-06-10T06:43:54Z</time>
      </trkpt>
      <trkpt lat="45.60779" lon="5.97026">
        <ele>1057.77</ele>
        <time>2021-06-10T06:43:59Z</time>
      </trkpt>
      <trkpt lat="45.60778" lon="5.97023">
        <ele>1057.98</ele>
        <time>2021-06-10T06:44:01Z</time>
      </trkpt>
      <trkpt lat="45.60774" lon="5.97015">
        <ele>1058.94</ele>
        <time>2021-06-10T06:44:21Z</time>
      </trkpt>
      <trkpt lat="45.60764" lon="5.97017">
        <ele>1058.46</ele>
        <time>2021-06-10T06:44:41Z</time>
      </trkpt>
      <trkpt lat="45.60759" lon="5.97004">
        <ele>1061.83</ele>
        <time>2021-06-10T06:45:00Z</time>
      </trkpt>
      <trkpt lat="45.6076" lon="5.96994">
        <ele>1062.01</ele>
        <time>2021-06-10T06:45:14Z</time>
      </trkpt>
      <trkpt lat="45.60752" lon="5.96991">
        <ele>1062.74</ele>
        <time>2021-06-10T06:45:21Z</time>
      </trkpt>
      <trkpt lat="45.60749" lon="5.96992">
        <ele>1062.63</ele>
        <time>2021-06-10T06:45:23Z</time>
      </trkpt>
      <trkpt lat="45.60747" lon="5.96984">
        <ele>1063.6</ele>
        <time>2021-06-10T06:45:32Z</time>
      </trkpt>
      <trkpt lat="45.60744" lon="5.96972">
        <ele>1064.61</ele>
        <time>2021-06-10T06:45:46Z</time>
      </trkpt>
      <trkpt lat="45.6073" lon="5.96955">
        <ele>1067.16</ele>
        <time>2021-06-10T06:46:05Z</time>
      </trkpt>
      <trkpt lat="45.60707" lon="5.96952">
        <ele>1070.38</ele>
        <time>2021-06-10T06:46:23Z</time>
      </trkpt>
      <trkpt lat="45.60691" lon="5.96941">
        <ele>1072.2</ele>
        <time>2021-06-10T06:46:41Z</time>
      </trkpt>
      <trkpt lat="45.60683" lon="5.96932">
        <ele>1073.49</ele>
        <time>2021-06-10T06:46:50Z</time>
      </trkpt>
      <trkpt lat="45.60667" lon="5.96913">
        <ele>1076.06</ele>
        <time>2021-06-10T06:47:07Z</time>
      </trkpt>
      <trkpt lat="45.60663" lon="5.96895">
        <ele>1078.72</ele>
        <time>2021-06-10T06:47:22Z</time>
      </trkpt>
      <trkpt lat="45.60658" lon="5.96869">
        <ele>1081.79</ele>
        <time>2021-06-10T06:47:43Z</time>
      </trkpt>
      <trkpt lat="45.60647" lon="5.96846">
        <ele>1084.3</ele>
        <time>2021-06-10T06:48:03Z</time>
      </trkpt>
      <trkpt lat="45.60639" lon="5.96824">
        <ele>1087.36</ele>
        <time>2021-06-10T06:48:25Z</time>
      </trkpt>
      <trkpt lat="45.60636" lon="5.96804">
        <ele>1090.03</ele>
        <time>2021-06-10T06:48:46Z</time>
      </trkpt>
      <trkpt lat="45.60639" lon="5.9679">
        <ele>1093.06</ele>
        <time>2021-06-10T06:49:04Z</time>
      </trkpt>
      <trkpt lat="45.60647" lon="5.96788">
        <ele>1096.08</ele>
        <time>2021-06-10T06:49:22Z</time>
      </trkpt>
      <trkpt lat="45.60653" lon="5.96784">
        <ele>1099.1</ele>
        <time>2021-06-10T06:49:32Z</time>
      </trkpt>
      <trkpt lat="45.6066" lon="5.96784">
        <ele>1102.26</ele>
        <time>2021-06-10T06:49:45Z</time>
      </trkpt>
      <trkpt lat="45.60667" lon="5.96783">
        <ele>1105.46</ele>
        <time>2021-06-10T06:50:00Z</time>
      </trkpt>
      <trkpt lat="45.60675" lon="5.96785">
        <ele>1109.39</ele>
        <time>2021-06-10T06:50:16Z</time>
      </trkpt>
      <trkpt lat="45.60688" lon="5.96779">
        <ele>1112.27</ele>
        <time>2021-06-10T06:50:36Z</time>
      </trkpt>
      <trkpt lat="45.60694" lon="5.96777">
        <ele>1115.66</ele>
        <time>2021-06-10T06:50:52Z</time>
      </trkpt>
      <trkpt lat="45.60705" lon="5.96774">
        <ele>1118.76</ele>
        <time>2021-06-10T06:51:09Z</time>
      </trkpt>
      <trkpt lat="45.60713" lon="5.9677">
        <ele>1121.8</ele>
        <time>2021-06-10T06:51:26Z</time>
      </trkpt>
      <trkpt lat="45.60715" lon="5.96761">
        <ele>1125.06</ele>
        <time>2021-06-10T06:51:45Z</time>
      </trkpt>
      <trkpt lat="45.6072" lon="5.96754">
        <ele>1128.21</ele>
        <time>2021-06-10T06:52:00Z</time>
      </trkpt>
      <trkpt lat="45.60727" lon="5.96737">
        <ele>1131.18</ele>
        <time>2021-06-10T06:52:25Z</time>
      </trkpt>
      <trkpt lat="45.60737" lon="5.96722">
        <ele>1132.35</ele>
        <time>2021-06-10T06:52:44Z</time>
      </trkpt>
      <trkpt lat="45.60741" lon="5.9671">
        <ele>1135.44</ele>
        <time>2021-06-10T06:52:57Z</time>
      </trkpt>
      <trkpt lat="45.60745" lon="5.96698">
        <ele>1138.64</ele>
        <time>2021-06-10T06:53:12Z</time>
      </trkpt>
      <trkpt lat="45.60752" lon="5.96686">
        <ele>1142</ele>
        <time>2021-06-10T06:53:30Z</time>
      </trkpt>
      <trkpt lat="45.60756" lon="5.9667">
        <ele>1145.11</ele>
        <time>2021-06-10T06:53:47Z</time>
      </trkpt>
      <trkpt lat="45.60759" lon="5.96659">
        <ele>1148.28</ele>
        <time>2021-06-10T06:54:05Z</time>
      </trkpt>
      <trkpt lat="45.60761" lon="5.96645">
        <ele>1151.35</ele>
        <time>2021-06-10T06:54:25Z</time>
      </trkpt>
      <trkpt lat="45.60763" lon="5.96632">
        <ele>1154.49</ele>
        <time>2021-06-10T06:54:41Z</time>
      </trkpt>
      <trkpt lat="45.60764" lon="5.96617">
        <ele>1157.51</ele>
        <time>2021-06-10T06:55:02Z</time>
      </trkpt>
      <trkpt lat="45.60766" lon="5.96601">
        <ele>1160.86</ele>
        <time>2021-06-10T06:55:21Z</time>
      </trkpt>
      <trkpt lat="45.60768" lon="5.96581">
        <ele>1163.96</ele>
        <time>2021-06-10T06:55:41Z</time>
      </trkpt>
      <trkpt lat="45.6077" lon="5.96566">
        <ele>1167.09</ele>
        <time>2021-06-10T06:56:01Z</time>
      </trkpt>
      <trkpt lat="45.60772" lon="5.96557">
        <ele>1167.45</ele>
        <time>2021-06-10T06:56:25Z</time>
      </trkpt>
      <trkpt lat="45.60773" lon="5.96556">
        <ele>1167.63</ele>
        <time>2021-06-10T06:56:26Z</time>
      </trkpt>
      <trkpt lat="45.60772" lon="5.96553">
        <ele>1167.23</ele>
        <time>2021-06-10T06:56:33Z</time>
      </trkpt>
      <trkpt lat="45.6078" lon="5.96548">
        <ele>1168.97</ele>
        <time>2021-06-10T06:56:59Z</time>
      </trkpt>
      <trkpt lat="45.60782" lon="5.9654">
        <ele>1170.78</ele>
        <time>2021-06-10T06:57:12Z</time>
      </trkpt>
      <trkpt lat="45.60785" lon="5.96529">
        <ele>1173.82</ele>
        <time>2021-06-10T06:57:27Z</time>
      </trkpt>
      <trkpt lat="45.60789" lon="5.96518">
        <ele>1176.34</ele>
        <time>2021-06-10T06:57:46Z</time>
      </trkpt>
      <trkpt lat="45.60792" lon="5.96507">
        <ele>1177.67</ele>
        <time>2021-06-10T06:58:11Z</time>
      </trkpt>
      <trkpt lat="45.60798" lon="5.96497">
        <ele>1180.58</ele>
        <time>2021-06-10T06:58:36Z</time>
      </trkpt>
      <trkpt lat="45.60805" lon="5.96488">
        <ele>1183.65</ele>
        <time>2021-06-10T06:58:54Z</time>
      </trkpt>
      <trkpt lat="45.60811" lon="5.96482">
        <ele>1186.69</ele>
        <time>2021-06-10T06:59:09Z</time>
      </trkpt>
      <trkpt lat="45.6082" lon="5.96477">
        <ele>1189.94</ele>
        <time>2021-06-10T06:59:28Z</time>
      </trkpt>
      <trkpt lat="45.60821" lon="5.9647">
        <ele>1192.04</ele>
        <time>2021-06-10T06:59:37Z</time>
      </trkpt>
      <trkpt lat="45.60827" lon="5.96453">
        <ele>1194.77</ele>
        <time>2021-06-10T06:59:58Z</time>
      </trkpt>
      <trkpt lat="45.60828" lon="5.96438">
        <ele>1197.81</ele>
        <time>2021-06-10T07:00:14Z</time>
      </trkpt>
      <trkpt lat="45.60826" lon="5.96415">
        <ele>1201.14</ele>
        <time>2021-06-10T07:00:32Z</time>
      </trkpt>
      <trkpt lat="45.60826" lon="5.96411">
        <ele>1201.87</ele>
        <time>2021-06-10T07:00:36Z</time>
      </trkpt>
      <trkpt lat="45.60826" lon="5.96395">
        <ele>1205.02</ele>
        <time>2021-06-10T07:00:55Z</time>
      </trkpt>
      <trkpt lat="45.60825" lon="5.96383">
        <ele>1208.23</ele>
        <time>2021-06-10T07:01:12Z</time>
      </trkpt>
      <trkpt lat="45.60825" lon="5.96383">
        <ele>1208.27</ele>
        <time>2021-06-10T07:01:13Z</time>
      </trkpt>
      <trkpt lat="45.60828" lon="5.9637">
        <ele>1211.67</ele>
        <time>2021-06-10T07:01:30Z</time>
      </trkpt>
      <trkpt lat="45.60826" lon="5.96357">
        <ele>1214.29</ele>
        <time>2021-06-10T07:01:54Z</time>
      </trkpt>
      <trkpt lat="45.6083" lon="5.96347">
        <ele>1217.33</ele>
        <time>2021-06-10T07:02:15Z</time>
      </trkpt>
      <trkpt lat="45.60829" lon="5.96341">
        <ele>1219</ele>
        <time>2021-06-10T07:02:36Z</time>
      </trkpt>
      <trkpt lat="45.60839" lon="5.9634">
        <ele>1221.41</ele>
        <time>2021-06-10T07:02:54Z</time>
      </trkpt>
      <trkpt lat="45.6085" lon="5.96343">
        <ele>1224.47</ele>
        <time>2021-06-10T07:03:14Z</time>
      </trkpt>
      <trkpt lat="45.60859" lon="5.96337">
        <ele>1227.47</ele>
        <time>2021-06-10T07:03:32Z</time>
      </trkpt>
      <trkpt lat="45.60861" lon="5.96324">
        <ele>1230.24</ele>
        <time>2021-06-10T07:03:49Z</time>
      </trkpt>
      <trkpt lat="45.60863" lon="5.96316">
        <ele>1232.48</ele>
        <time>2021-06-10T07:04:02Z</time>
      </trkpt>
      <trkpt lat="45.60863" lon="5.963">
        <ele>1235.76</ele>
        <time>2021-06-10T07:04:26Z</time>
      </trkpt>
      <trkpt lat="45.60862" lon="5.96293">
        <ele>1239.09</ele>
        <time>2021-06-10T07:04:39Z</time>
      </trkpt>
      <trkpt lat="45.60861" lon="5.96293">
        <ele>1238.82</ele>
        <time>2021-06-10T07:04:42Z</time>
      </trkpt>
      <trkpt lat="45.60859" lon="5.96281">
        <ele>1242.04</ele>
        <time>2021-06-10T07:05:05Z</time>
      </trkpt>
      <trkpt lat="45.60858" lon="5.96268">
        <ele>1245.09</ele>
        <time>2021-06-10T07:05:22Z</time>
      </trkpt>
      <trkpt lat="45.60861" lon="5.96261">
        <ele>1248.19</ele>
        <time>2021-06-10T07:05:40Z</time>
      </trkpt>
      <trkpt lat="45.60864" lon="5.96255">
        <ele>1251.52</ele>
        <time>2021-06-10T07:05:57Z</time>
      </trkpt>
      <trkpt lat="45.60872" lon="5.96245">
        <ele>1253.87</ele>
        <time>2021-06-10T07:06:15Z</time>
      </trkpt>
      <trkpt lat="45.60874" lon="5.96235">
        <ele>1255.76</ele>
        <time>2021-06-10T07:06:36Z</time>
      </trkpt>
      <trkpt lat="45.60882" lon="5.96226">
        <ele>1258.02</ele>
        <time>2021-06-10T07:06:54Z</time>
      </trkpt>
      <trkpt lat="45.60892" lon="5.96223">
        <ele>1261.18</ele>
        <time>2021-06-10T07:07:12Z</time>
      </trkpt>
      <trkpt lat="45.60903" lon="5.9622">
        <ele>1264.26</ele>
        <time>2021-06-10T07:07:30Z</time>
      </trkpt>
      <trkpt lat="45.60916" lon="5.96214">
        <ele>1267.31</ele>
        <time>2021-06-10T07:07:47Z</time>
      </trkpt>
      <trkpt lat="45.60925" lon="5.96214">
        <ele>1270.1</ele>
        <time>2021-06-10T07:08:07Z</time>
      </trkpt>
      <trkpt lat="45.60934" lon="5.96214">
        <ele>1273.26</ele>
        <time>2021-06-10T07:08:22Z</time>
      </trkpt>
      <trkpt lat="45.60939" lon="5.96209">
        <ele>1274.37</ele>
        <time>2021-06-10T07:08:36Z</time>
      </trkpt>
      <trkpt lat="45.6094" lon="5.96209">
        <ele>1272.91</ele>
        <time>2021-06-10T07:09:02Z</time>
      </trkpt>
      <trkpt lat="45.6094" lon="5.96211">
        <ele>1272.86</ele>
        <time>2021-06-10T07:09:55Z</time>
      </trkpt>
      <trkpt lat="45.6094" lon="5.9621">
        <ele>1273.91</ele>
        <time>2021-06-10T07:10:14Z</time>
      </trkpt>
      <trkpt lat="45.60942" lon="5.96212">
        <ele>1274.84</ele>
        <time>2021-06-10T07:10:35Z</time>
      </trkpt>
      <trkpt lat="45.6095" lon="5.96221">
        <ele>1277.91</ele>
        <time>2021-06-10T07:10:51Z</time>
      </trkpt>
      <trkpt lat="45.60956" lon="5.96235">
        <ele>1280.93</ele>
        <time>2021-06-10T07:11:06Z</time>
      </trkpt>
      <trkpt lat="45.60966" lon="5.96243">
        <ele>1284.05</ele>
        <time>2021-06-10T07:11:21Z</time>
      </trkpt>
      <trkpt lat="45.60971" lon="5.96249">
        <ele>1285.8</ele>
        <time>2021-06-10T07:11:30Z</time>
      </trkpt>
      <trkpt lat="45.60978" lon="5.96255">
        <ele>1286.98</ele>
        <time>2021-06-10T07:11:38Z</time>
      </trkpt>
      <trkpt lat="45.60989" lon="5.96265">
        <ele>1288.66</ele>
        <time>2021-06-10T07:11:54Z</time>
      </trkpt>
      <trkpt lat="45.61003" lon="5.9628">
        <ele>1290.6</ele>
        <time>2021-06-10T07:12:13Z</time>
      </trkpt>
      <trkpt lat="45.6101" lon="5.96284">
        <ele>1291.39</ele>
        <time>2021-06-10T07:12:29Z</time>
      </trkpt>
      <trkpt lat="45.6101" lon="5.96288">
        <ele>1291.3</ele>
        <time>2021-06-10T07:12:34Z</time>
      </trkpt>
      <trkpt lat="45.61016" lon="5.96301">
        <ele>1294.67</ele>
        <time>2021-06-10T07:12:48Z</time>
      </trkpt>
      <trkpt lat="45.61021" lon="5.96308">
        <ele>1297.74</ele>
        <time>2021-06-10T07:12:58Z</time>
      </trkpt>
      <trkpt lat="45.61026" lon="5.96319">
        <ele>1300.82</ele>
        <time>2021-06-10T07:13:11Z</time>
      </trkpt>
      <trkpt lat="45.61034" lon="5.96328">
        <ele>1303.96</ele>
        <time>2021-06-10T07:13:24Z</time>
      </trkpt>
      <trkpt lat="45.61038" lon="5.96334">
        <ele>1307.04</ele>
        <time>2021-06-10T07:13:35Z</time>
      </trkpt>
      <trkpt lat="45.61044" lon="5.96341">
        <ele>1309.7</ele>
        <time>2021-06-10T07:13:51Z</time>
      </trkpt>
      <trkpt lat="45.6105" lon="5.96347">
        <ele>1313.08</ele>
        <time>2021-06-10T07:14:06Z</time>
      </trkpt>
      <trkpt lat="45.61055" lon="5.96354">
        <ele>1316.26</ele>
        <time>2021-06-10T07:14:20Z</time>
      </trkpt>
      <trkpt lat="45.61061" lon="5.96362">
        <ele>1319.44</ele>
        <time>2021-06-10T07:14:36Z</time>
      </trkpt>
      <trkpt lat="45.61066" lon="5.96369">
        <ele>1319.95</ele>
        <time>2021-06-10T07:14:55Z</time>
      </trkpt>
      <trkpt lat="45.61071" lon="5.96375">
        <ele>1320.94</ele>
        <time>2021-06-10T07:15:09Z</time>
      </trkpt>
      <trkpt lat="45.61076" lon="5.9638">
        <ele>1322.21</ele>
        <time>2021-06-10T07:15:18Z</time>
      </trkpt>
      <trkpt lat="45.6108" lon="5.96386">
        <ele>1323.22</ele>
        <time>2021-06-10T07:15:24Z</time>
      </trkpt>
      <trkpt lat="45.61089" lon="5.96399">
        <ele>1325.92</ele>
        <time>2021-06-10T07:15:43Z</time>
      </trkpt>
      <trkpt lat="45.61098" lon="5.96407">
        <ele>1329.03</ele>
        <time>2021-06-10T07:15:55Z</time>
      </trkpt>
      <trkpt lat="45.61105" lon="5.96417">
        <ele>1332.12</ele>
        <time>2021-06-10T07:16:09Z</time>
      </trkpt>
      <trkpt lat="45.61113" lon="5.96425">
        <ele>1335.28</ele>
        <time>2021-06-10T07:16:23Z</time>
      </trkpt>
      <trkpt lat="45.6112" lon="5.96433">
        <ele>1338.48</ele>
        <time>2021-06-10T07:16:40Z</time>
      </trkpt>
      <trkpt lat="45.61124" lon="5.96435">
        <ele>1340.03</ele>
        <time>2021-06-10T07:16:48Z</time>
      </trkpt>
      <trkpt lat="45.61129" lon="5.96441">
        <ele>1343.15</ele>
        <time>2021-06-10T07:17:01Z</time>
      </trkpt>
      <trkpt lat="45.61134" lon="5.96449">
        <ele>1346.18</ele>
        <time>2021-06-10T07:17:18Z</time>
      </trkpt>
      <trkpt lat="45.61139" lon="5.96457">
        <ele>1349.18</ele>
        <time>2021-06-10T07:17:35Z</time>
      </trkpt>
      <trkpt lat="45.61146" lon="5.96466">
        <ele>1352.27</ele>
        <time>2021-06-10T07:17:53Z</time>
      </trkpt>
      <trkpt lat="45.61154" lon="5.96474">
        <ele>1354.97</ele>
        <time>2021-06-10T07:18:14Z</time>
      </trkpt>
      <trkpt lat="45.6116" lon="5.96479">
        <ele>1358.33</ele>
        <time>2021-06-10T07:18:29Z</time>
      </trkpt>
      <trkpt lat="45.61166" lon="5.96485">
        <ele>1361.35</ele>
        <time>2021-06-10T07:18:47Z</time>
      </trkpt>
      <trkpt lat="45.61174" lon="5.9649">
        <ele>1364.49</ele>
        <time>2021-06-10T07:19:07Z</time>
      </trkpt>
      <trkpt lat="45.61179" lon="5.96494">
        <ele>1367.83</ele>
        <time>2021-06-10T07:19:23Z</time>
      </trkpt>
      <trkpt lat="45.61184" lon="5.965">
        <ele>1370.96</ele>
        <time>2021-06-10T07:19:40Z</time>
      </trkpt>
      <trkpt lat="45.61187" lon="5.96508">
        <ele>1373.08</ele>
        <time>2021-06-10T07:19:59Z</time>
      </trkpt>
      <trkpt lat="45.61192" lon="5.96513">
        <ele>1376.12</ele>
        <time>2021-06-10T07:20:12Z</time>
      </trkpt>
      <trkpt lat="45.61199" lon="5.9652">
        <ele>1379.25</ele>
        <time>2021-06-10T07:20:29Z</time>
      </trkpt>
      <trkpt lat="45.61208" lon="5.9653">
        <ele>1381.82</ele>
        <time>2021-06-10T07:20:51Z</time>
      </trkpt>
      <trkpt lat="45.61211" lon="5.96535">
        <ele>1384.98</ele>
        <time>2021-06-10T07:21:07Z</time>
      </trkpt>
      <trkpt lat="45.61214" lon="5.96546">
        <ele>1388.12</ele>
        <time>2021-06-10T07:21:31Z</time>
      </trkpt>
      <trkpt lat="45.61217" lon="5.96554">
        <ele>1391.32</ele>
        <time>2021-06-10T07:21:48Z</time>
      </trkpt>
      <trkpt lat="45.61216" lon="5.96566">
        <ele>1394.28</ele>
        <time>2021-06-10T07:22:08Z</time>
      </trkpt>
      <trkpt lat="45.6122" lon="5.96586">
        <ele>1397.3</ele>
        <time>2021-06-10T07:22:30Z</time>
      </trkpt>
      <trkpt lat="45.61219" lon="5.96603">
        <ele>1398.96</ele>
        <time>2021-06-10T07:22:51Z</time>
      </trkpt>
      <trkpt lat="45.61222" lon="5.96618">
        <ele>1402.28</ele>
        <time>2021-06-10T07:23:11Z</time>
      </trkpt>
      <trkpt lat="45.61227" lon="5.96635">
        <ele>1405.57</ele>
        <time>2021-06-10T07:23:32Z</time>
      </trkpt>
      <trkpt lat="45.61231" lon="5.96648">
        <ele>1408.58</ele>
        <time>2021-06-10T07:23:53Z</time>
      </trkpt>
      <trkpt lat="45.61237" lon="5.96668">
        <ele>1410.43</ele>
        <time>2021-06-10T07:24:16Z</time>
      </trkpt>
      <trkpt lat="45.61234" lon="5.96687">
        <ele>1413.2</ele>
        <time>2021-06-10T07:24:35Z</time>
      </trkpt>
      <trkpt lat="45.6124" lon="5.96714">
        <ele>1415.94</ele>
        <time>2021-06-10T07:24:57Z</time>
      </trkpt>
      <trkpt lat="45.61239" lon="5.96718">
        <ele>1416.47</ele>
        <time>2021-06-10T07:25:01Z</time>
      </trkpt>
      <trkpt lat="45.61241" lon="5.96728">
        <ele>1420.47</ele>
        <time>2021-06-10T07:25:14Z</time>
      </trkpt>
      <trkpt lat="45.61241" lon="5.96729">
        <ele>1420.57</ele>
        <time>2021-06-10T07:25:15Z</time>
      </trkpt>
      <trkpt lat="45.61252" lon="5.96747">
        <ele>1423.58</ele>
        <time>2021-06-10T07:25:35Z</time>
      </trkpt>
      <trkpt lat="45.61259" lon="5.96756">
        <ele>1424.26</ele>
        <time>2021-06-10T07:26:00Z</time>
      </trkpt>
      <trkpt lat="45.61263" lon="5.96758">
        <ele>1424.58</ele>
        <time>2021-06-10T07:26:23Z</time>
      </trkpt>
      <trkpt lat="45.61263" lon="5.96758">
        <ele>1424.44</ele>
        <time>2021-06-10T07:26:24Z</time>
      </trkpt>
      <trkpt lat="45.61264" lon="5.96759">
        <ele>1422.81</ele>
        <time>2021-06-10T07:26:39Z</time>
      </trkpt>
      <trkpt lat="45.6127" lon="5.96752">
        <ele>1426.14</ele>
        <time>2021-06-10T07:27:00Z</time>
      </trkpt>
      <trkpt lat="45.61272" lon="5.96754">
        <ele>1428.49</ele>
        <time>2021-06-10T07:27:17Z</time>
      </trkpt>
      <trkpt lat="45.61271" lon="5.96753">
        <ele>1430.8</ele>
        <time>2021-06-10T07:27:36Z</time>
      </trkpt>
      <trkpt lat="45.61268" lon="5.96757">
        <ele>1430.34</ele>
        <time>2021-06-10T07:27:53Z</time>
      </trkpt>
      <trkpt lat="45.61266" lon="5.96756">
        <ele>1431.28</ele>
        <time>2021-06-10T07:28:15Z</time>
      </trkpt>
      <trkpt lat="45.61266" lon="5.96755">
        <ele>1429.23</ele>
        <time>2021-06-10T07:28:38Z</time>
      </trkpt>
      <trkpt lat="45.61266" lon="5.96756">
        <ele>1429.75</ele>
        <time>2021-06-10T07:29:04Z</time>
      </trkpt>
      <trkpt lat="45.61269" lon="5.96756">
        <ele>1430.44</ele>
        <time>2021-06-10T07:29:27Z</time>
      </trkpt>
      <trkpt lat="45.61277" lon="5.96757">
        <ele>1430.17</ele>
        <time>2021-06-10T07:29:50Z</time>
      </trkpt>
      <trkpt lat="45.6127" lon="5.96761">
        <ele>1431.59</ele>
        <time>2021-06-10T07:30:14Z</time>
      </trkpt>
      <trkpt lat="45.61272" lon="5.96764">
        <ele>1434.67</ele>
        <time>2021-06-10T07:30:22Z</time>
      </trkpt>
      <trkpt lat="45.61272" lon="5.9678">
        <ele>1437.24</ele>
        <time>2021-06-10T07:30:39Z</time>
      </trkpt>
      <trkpt lat="45.61272" lon="5.96783">
        <ele>1438.04</ele>
        <time>2021-06-10T07:30:41Z</time>
      </trkpt>
      <trkpt lat="45.61272" lon="5.9679">
        <ele>1438.24</ele>
        <time>2021-06-10T07:30:45Z</time>
      </trkpt>
      <trkpt lat="45.61269" lon="5.96809">
        <ele>1441.66</ele>
        <time>2021-06-10T07:31:00Z</time>
      </trkpt>
      <trkpt lat="45.61268" lon="5.96813">
        <ele>1443.56</ele>
        <time>2021-06-10T07:31:06Z</time>
      </trkpt>
      <trkpt lat="45.61267" lon="5.9682">
        <ele>1447.22</ele>
        <time>2021-06-10T07:31:17Z</time>
      </trkpt>
      <trkpt lat="45.61268" lon="5.96827">
        <ele>1449.72</ele>
        <time>2021-06-10T07:31:34Z</time>
      </trkpt>
      <trkpt lat="45.61267" lon="5.96829">
        <ele>1450.19</ele>
        <time>2021-06-10T07:31:39Z</time>
      </trkpt>
      <trkpt lat="45.61266" lon="5.96831">
        <ele>1450.67</ele>
        <time>2021-06-10T07:31:41Z</time>
      </trkpt>
      <trkpt lat="45.61262" lon="5.96837">
        <ele>1452.8</ele>
        <time>2021-06-10T07:32:07Z</time>
      </trkpt>
      <trkpt lat="45.61264" lon="5.96837">
        <ele>1453.12</ele>
        <time>2021-06-10T07:32:13Z</time>
      </trkpt>
      <trkpt lat="45.61264" lon="5.96837">
        <ele>1455.16</ele>
        <time>2021-06-10T07:32:17Z</time>
      </trkpt>
      <trkpt lat="45.61265" lon="5.9684">
        <ele>1456.07</ele>
        <time>2021-06-10T07:32:23Z</time>
      </trkpt>
      <trkpt lat="45.61266" lon="5.96839">
        <ele>1455.69</ele>
        <time>2021-06-10T07:32:31Z</time>
      </trkpt>
      <trkpt lat="45.61266" lon="5.96842">
        <ele>1458.37</ele>
        <time>2021-06-10T07:32:40Z</time>
      </trkpt>
      <trkpt lat="45.61265" lon="5.96844">
        <ele>1459.25</ele>
        <time>2021-06-10T07:32:43Z</time>
      </trkpt>
      <trkpt lat="45.61265" lon="5.96844">
        <ele>1459.25</ele>
        <time>2021-06-10T07:32:45Z</time>
      </trkpt>
      <trkpt lat="45.61268" lon="5.96846">
        <ele>1462.07</ele>
        <time>2021-06-10T07:32:54Z</time>
      </trkpt>
      <trkpt lat="45.61273" lon="5.9685">
        <ele>1461.64</ele>
        <time>2021-06-10T07:33:08Z</time>
      </trkpt>
      <trkpt lat="45.61271" lon="5.96847">
        <ele>1462.05</ele>
        <time>2021-06-10T07:33:31Z</time>
      </trkpt>
      <trkpt lat="45.61276" lon="5.96845">
        <ele>1464.1</ele>
        <time>2021-06-10T07:33:48Z</time>
      </trkpt>
      <trkpt lat="45.61277" lon="5.96846">
        <ele>1464.42</ele>
        <time>2021-06-10T07:33:49Z</time>
      </trkpt>
      <trkpt lat="45.61271" lon="5.96851">
        <ele>1464.31</ele>
        <time>2021-06-10T07:34:08Z</time>
      </trkpt>
      <trkpt lat="45.61276" lon="5.96849">
        <ele>1465.83</ele>
        <time>2021-06-10T07:34:16Z</time>
      </trkpt>
      <trkpt lat="45.61273" lon="5.96857">
        <ele>1469.76</ele>
        <time>2021-06-10T07:34:35Z</time>
      </trkpt>
      <trkpt lat="45.6127" lon="5.96865">
        <ele>1472.94</ele>
        <time>2021-06-10T07:34:54Z</time>
      </trkpt>
      <trkpt lat="45.61272" lon="5.96863">
        <ele>1473.31</ele>
        <time>2021-06-10T07:35:09Z</time>
      </trkpt>
      <trkpt lat="45.61277" lon="5.96862">
        <ele>1474.37</ele>
        <time>2021-06-10T07:35:25Z</time>
      </trkpt>
      <trkpt lat="45.61278" lon="5.96853">
        <ele>1477.13</ele>
        <time>2021-06-10T07:35:44Z</time>
      </trkpt>
      <trkpt lat="45.61281" lon="5.96851">
        <ele>1478.73</ele>
        <time>2021-06-10T07:36:03Z</time>
      </trkpt>
      <trkpt lat="45.61286" lon="5.96843">
        <ele>1480.09</ele>
        <time>2021-06-10T07:36:24Z</time>
      </trkpt>
      <trkpt lat="45.61292" lon="5.96834">
        <ele>1483.66</ele>
        <time>2021-06-10T07:36:42Z</time>
      </trkpt>
      <trkpt lat="45.61293" lon="5.96825">
        <ele>1486</ele>
        <time>2021-06-10T07:37:00Z</time>
      </trkpt>
      <trkpt lat="45.61294" lon="5.96818">
        <ele>1489.04</ele>
        <time>2021-06-10T07:37:20Z</time>
      </trkpt>
      <trkpt lat="45.61297" lon="5.96811">
        <ele>1491.32</ele>
        <time>2021-06-10T07:37:39Z</time>
      </trkpt>
      <trkpt lat="45.61301" lon="5.96802">
        <ele>1493.85</ele>
        <time>2021-06-10T07:37:59Z</time>
      </trkpt>
      <trkpt lat="45.61301" lon="5.96785">
        <ele>1494.6</ele>
        <time>2021-06-10T07:38:21Z</time>
      </trkpt>
      <trkpt lat="45.61307" lon="5.96766">
        <ele>1497.63</ele>
        <time>2021-06-10T07:38:37Z</time>
      </trkpt>
      <trkpt lat="45.61306" lon="5.96751">
        <ele>1498.33</ele>
        <time>2021-06-10T07:38:55Z</time>
      </trkpt>
      <trkpt lat="45.61307" lon="5.96736">
        <ele>1501.73</ele>
        <time>2021-06-10T07:39:14Z</time>
      </trkpt>
      <trkpt lat="45.61304" lon="5.96721">
        <ele>1503.82</ele>
        <time>2021-06-10T07:39:35Z</time>
      </trkpt>
      <trkpt lat="45.61303" lon="5.96704">
        <ele>1507.08</ele>
        <time>2021-06-10T07:39:53Z</time>
      </trkpt>
      <trkpt lat="45.61305" lon="5.96694">
        <ele>1509.9</ele>
        <time>2021-06-10T07:40:13Z</time>
      </trkpt>
      <trkpt lat="45.61309" lon="5.96682">
        <ele>1512.93</ele>
        <time>2021-06-10T07:40:30Z</time>
      </trkpt>
      <trkpt lat="45.61309" lon="5.96674">
        <ele>1515.52</ele>
        <time>2021-06-10T07:40:48Z</time>
      </trkpt>
      <trkpt lat="45.61309" lon="5.96664">
        <ele>1518.64</ele>
        <time>2021-06-10T07:41:06Z</time>
      </trkpt>
      <trkpt lat="45.6131" lon="5.96653">
        <ele>1520.03</ele>
        <time>2021-06-10T07:41:23Z</time>
      </trkpt>
      <trkpt lat="45.61312" lon="5.96645">
        <ele>1520.52</ele>
        <time>2021-06-10T07:41:41Z</time>
      </trkpt>
      <trkpt lat="45.61312" lon="5.96643">
        <ele>1520.38</ele>
        <time>2021-06-10T07:42:09Z</time>
      </trkpt>
      <trkpt lat="45.61311" lon="5.96643">
        <ele>1520.48</ele>
        <time>2021-06-10T07:42:34Z</time>
      </trkpt>
      <trkpt lat="45.61313" lon="5.96643">
        <ele>1520.88</ele>
        <time>2021-06-10T07:42:58Z</time>
      </trkpt>
      <trkpt lat="45.61316" lon="5.96636">
        <ele>1522.5</ele>
        <time>2021-06-10T07:43:15Z</time>
      </trkpt>
      <trkpt lat="45.61321" lon="5.96629">
        <ele>1521.31</ele>
        <time>2021-06-10T07:43:33Z</time>
      </trkpt>
      <trkpt lat="45.61321" lon="5.96623">
        <ele>1524.87</ele>
        <time>2021-06-10T07:43:44Z</time>
      </trkpt>
      <trkpt lat="45.61324" lon="5.96613">
        <ele>1527.74</ele>
        <time>2021-06-10T07:44:00Z</time>
      </trkpt>
      <trkpt lat="45.61326" lon="5.96602">
        <ele>1530.11</ele>
        <time>2021-06-10T07:44:17Z</time>
      </trkpt>
      <trkpt lat="45.61332" lon="5.96595">
        <ele>1531.28</ele>
        <time>2021-06-10T07:44:36Z</time>
      </trkpt>
      <trkpt lat="45.61331" lon="5.96588">
        <ele>1532.38</ele>
        <time>2021-06-10T07:44:55Z</time>
      </trkpt>
      <trkpt lat="45.61331" lon="5.96586">
        <ele>1533.14</ele>
        <time>2021-06-10T07:45:16Z</time>
      </trkpt>
      <trkpt lat="45.61334" lon="5.96585">
        <ele>1533.13</ele>
        <time>2021-06-10T07:45:36Z</time>
      </trkpt>
      <trkpt lat="45.61338" lon="5.96578">
        <ele>1535.7</ele>
        <time>2021-06-10T07:45:51Z</time>
      </trkpt>
      <trkpt lat="45.61341" lon="5.9657">
        <ele>1537.46</ele>
        <time>2021-06-10T07:46:06Z</time>
      </trkpt>
      <trkpt lat="45.61352" lon="5.96569">
        <ele>1539.08</ele>
        <time>2021-06-10T07:46:23Z</time>
      </trkpt>
      <trkpt lat="45.61359" lon="5.9656">
        <ele>1541.44</ele>
        <time>2021-06-10T07:46:38Z</time>
      </trkpt>
      <trkpt lat="45.61362" lon="5.96555">
        <ele>1540.91</ele>
        <time>2021-06-10T07:46:53Z</time>
      </trkpt>
      <trkpt lat="45.61361" lon="5.96555">
        <ele>1541.24</ele>
        <time>2021-06-10T07:47:43Z</time>
      </trkpt>
      <trkpt lat="45.61361" lon="5.96555">
        <ele>1541.35</ele>
        <time>2021-06-10T07:48:25Z</time>
      </trkpt>
      <trkpt lat="45.61363" lon="5.96554">
        <ele>1541.39</ele>
        <time>2021-06-10T07:49:14Z</time>
      </trkpt>
      <trkpt lat="45.61365" lon="5.96552">
        <ele>1540.81</ele>
        <time>2021-06-10T07:49:54Z</time>
      </trkpt>
      <trkpt lat="45.61365" lon="5.96552">
        <ele>1540.76</ele>
        <time>2021-06-10T07:50:15Z</time>
      </trkpt>
      <trkpt lat="45.61364" lon="5.96552">
        <ele>1540.7</ele>
        <time>2021-06-10T07:50:52Z</time>
      </trkpt>
      <trkpt lat="45.61364" lon="5.96552">
        <ele>1541.21</ele>
        <time>2021-06-10T07:51:36Z</time>
      </trkpt>
      <trkpt lat="45.61366" lon="5.96553">
        <ele>1541.39</ele>
        <time>2021-06-10T07:52:30Z</time>
      </trkpt>
      <trkpt lat="45.61366" lon="5.96552">
        <ele>1541.39</ele>
        <time>2021-06-10T07:53:05Z</time>
      </trkpt>
      <trkpt lat="45.61366" lon="5.96551">
        <ele>1541.58</ele>
        <time>2021-06-10T07:53:53Z</time>
      </trkpt>
      <trkpt lat="45.61366" lon="5.96551">
        <ele>1541.79</ele>
        <time>2021-06-10T07:54:45Z</time>
      </trkpt>
      <trkpt lat="45.61367" lon="5.9655">
        <ele>1541.89</ele>
        <time>2021-06-10T07:55:36Z</time>
      </trkpt>
      <trkpt lat="45.61367" lon="5.9655">
        <ele>1542.5</ele>
        <time>2021-06-10T07:56:30Z</time>
      </trkpt>
      <trkpt lat="45.61367" lon="5.96551">
        <ele>1542.7</ele>
        <time>2021-06-10T07:57:28Z</time>
      </trkpt>
      <trkpt lat="45.61367" lon="5.96552">
        <ele>1543.27</ele>
        <time>2021-06-10T07:58:24Z</time>
      </trkpt>
      <trkpt lat="45.61367" lon="5.96552">
        <ele>1543.56</ele>
        <time>2021-06-10T07:59:20Z</time>
      </trkpt>
      <trkpt lat="45.61367" lon="5.96551">
        <ele>1543.9</ele>
        <time>2021-06-10T08:00:07Z</time>
      </trkpt>
      <trkpt lat="45.61367" lon="5.96552">
        <ele>1544.18</ele>
        <time>2021-06-10T08:00:38Z</time>
      </trkpt>
      <trkpt lat="45.61367" lon="5.96552">
        <ele>1544.49</ele>
        <time>2021-06-10T08:01:40Z</time>
      </trkpt>
      <trkpt lat="45.61366" lon="5.96553">
        <ele>1543.92</ele>
        <time>2021-06-10T08:02:28Z</time>
      </trkpt>
      <trkpt lat="45.61368" lon="5.96552">
        <ele>1543.78</ele>
        <time>2021-06-10T08:03:00Z</time>
      </trkpt>
      <trkpt lat="45.61368" lon="5.96552">
        <ele>1544.19</ele>
        <time>2021-06-10T08:03:24Z</time>
      </trkpt>
      <trkpt lat="45.61366" lon="5.96552">
        <ele>1543.83</ele>
        <time>2021-06-10T08:03:45Z</time>
      </trkpt>
      <trkpt lat="45.61367" lon="5.96552">
        <ele>1544.15</ele>
        <time>2021-06-10T08:04:13Z</time>
      </trkpt>
      <trkpt lat="45.61369" lon="5.96552">
        <ele>1545</ele>
        <time>2021-06-10T08:04:36Z</time>
      </trkpt>
      <trkpt lat="45.61369" lon="5.96552">
        <ele>1544.41</ele>
        <time>2021-06-10T08:05:40Z</time>
      </trkpt>
      <trkpt lat="45.61369" lon="5.96552">
        <ele>1544.44</ele>
        <time>2021-06-10T08:06:07Z</time>
      </trkpt>
      <trkpt lat="45.61369" lon="5.96553">
        <ele>1544.19</ele>
        <time>2021-06-10T08:07:08Z</time>
      </trkpt>
      <trkpt lat="45.61368" lon="5.96552">
        <ele>1544.76</ele>
        <time>2021-06-10T08:07:45Z</time>
      </trkpt>
      <trkpt lat="45.61367" lon="5.96552">
        <ele>1544.44</ele>
        <time>2021-06-10T08:08:19Z</time>
      </trkpt>
      <trkpt lat="45.61368" lon="5.96552">
        <ele>1544.87</ele>
        <time>2021-06-10T08:08:54Z</time>
      </trkpt>
      <trkpt lat="45.61367" lon="5.96551">
        <ele>1545.13</ele>
        <time>2021-06-10T08:09:47Z</time>
      </trkpt>
      <trkpt lat="45.61366" lon="5.96552">
        <ele>1545.33</ele>
        <time>2021-06-10T08:10:35Z</time>
      </trkpt>
      <trkpt lat="45.61367" lon="5.96551">
        <ele>1546</ele>
        <time>2021-06-10T08:10:56Z</time>
      </trkpt>
      <trkpt lat="45.61364" lon="5.96552">
        <ele>1547.3</ele>
        <time>2021-06-10T08:11:00Z</time>
      </trkpt>
      <trkpt lat="45.61365" lon="5.96554">
        <ele>1546.89</ele>
        <time>2021-06-10T08:11:17Z</time>
      </trkpt>
      <trkpt lat="45.61366" lon="5.96554">
        <ele>1546.33</ele>
        <time>2021-06-10T08:11:28Z</time>
      </trkpt>
      <trkpt lat="45.61363" lon="5.96561">
        <ele>1544.01</ele>
        <time>2021-06-10T08:11:41Z</time>
      </trkpt>
      <trkpt lat="45.61363" lon="5.96572">
        <ele>1541.93</ele>
        <time>2021-06-10T08:11:59Z</time>
      </trkpt>
      <trkpt lat="45.61366" lon="5.96582">
        <ele>1538.6</ele>
        <time>2021-06-10T08:12:12Z</time>
      </trkpt>
      <trkpt lat="45.61367" lon="5.9659">
        <ele>1535.48</ele>
        <time>2021-06-10T08:12:22Z</time>
      </trkpt>
      <trkpt lat="45.61367" lon="5.96605">
        <ele>1533.46</ele>
        <time>2021-06-10T08:12:40Z</time>
      </trkpt>
      <trkpt lat="45.61368" lon="5.96622">
        <ele>1530.34</ele>
        <time>2021-06-10T08:12:55Z</time>
      </trkpt>
      <trkpt lat="45.61376" lon="5.96638">
        <ele>1527.6</ele>
        <time>2021-06-10T08:13:12Z</time>
      </trkpt>
      <trkpt lat="45.61389" lon="5.96656">
        <ele>1524.42</ele>
        <time>2021-06-10T08:13:32Z</time>
      </trkpt>
      <trkpt lat="45.61398" lon="5.96673">
        <ele>1521.39</ele>
        <time>2021-06-10T08:13:53Z</time>
      </trkpt>
      <trkpt lat="45.6142" lon="5.96694">
        <ele>1519.95</ele>
        <time>2021-06-10T08:14:10Z</time>
      </trkpt>
      <trkpt lat="45.61438" lon="5.96686">
        <ele>1518.29</ele>
        <time>2021-06-10T08:14:30Z</time>
      </trkpt>
      <trkpt lat="45.61448" lon="5.96677">
        <ele>1516.87</ele>
        <time>2021-06-10T08:14:48Z</time>
      </trkpt>
      <trkpt lat="45.61457" lon="5.96679">
        <ele>1515.05</ele>
        <time>2021-06-10T08:15:06Z</time>
      </trkpt>
      <trkpt lat="45.61469" lon="5.96686">
        <ele>1514.68</ele>
        <time>2021-06-10T08:15:22Z</time>
      </trkpt>
      <trkpt lat="45.61473" lon="5.96689">
        <ele>1515.08</ele>
        <time>2021-06-10T08:15:26Z</time>
      </trkpt>
      <trkpt lat="45.61496" lon="5.96701">
        <ele>1516.4</ele>
        <time>2021-06-10T08:15:47Z</time>
      </trkpt>
      <trkpt lat="45.61499" lon="5.96702">
        <ele>1515.42</ele>
        <time>2021-06-10T08:15:53Z</time>
      </trkpt>
      <trkpt lat="45.61523" lon="5.96721">
        <ele>1514.87</ele>
        <time>2021-06-10T08:16:13Z</time>
      </trkpt>
      <trkpt lat="45.6154" lon="5.96727">
        <ele>1514.67</ele>
        <time>2021-06-10T08:16:29Z</time>
      </trkpt>
      <trkpt lat="45.61557" lon="5.96736">
        <ele>1511.65</ele>
        <time>2021-06-10T08:16:48Z</time>
      </trkpt>
      <trkpt lat="45.61574" lon="5.96754">
        <ele>1512.35</ele>
        <time>2021-06-10T08:17:06Z</time>
      </trkpt>
      <trkpt lat="45.61602" lon="5.96766">
        <ele>1514.92</ele>
        <time>2021-06-10T08:17:25Z</time>
      </trkpt>
      <trkpt lat="45.61632" lon="5.96767">
        <ele>1514.92</ele>
        <time>2021-06-10T08:17:44Z</time>
      </trkpt>
      <trkpt lat="45.61655" lon="5.96771">
        <ele>1515.52</ele>
        <time>2021-06-10T08:18:06Z</time>
      </trkpt>
      <trkpt lat="45.61677" lon="5.96777">
        <ele>1518.46</ele>
        <time>2021-06-10T08:18:25Z</time>
      </trkpt>
      <trkpt lat="45.61683" lon="5.96777">
        <ele>1519.22</ele>
        <time>2021-06-10T08:18:36Z</time>
      </trkpt>
      <trkpt lat="45.61689" lon="5.96783">
        <ele>1518.61</ele>
        <time>2021-06-10T08:18:47Z</time>
      </trkpt>
      <trkpt lat="45.61708" lon="5.96803">
        <ele>1517.51</ele>
        <time>2021-06-10T08:19:05Z</time>
      </trkpt>
      <trkpt lat="45.6174" lon="5.96813">
        <ele>1515.5</ele>
        <time>2021-06-10T08:19:24Z</time>
      </trkpt>
      <trkpt lat="45.61756" lon="5.96811">
        <ele>1514.07</ele>
        <time>2021-06-10T08:19:35Z</time>
      </trkpt>
      <trkpt lat="45.61774" lon="5.96801">
        <ele>1514.6</ele>
        <time>2021-06-10T08:19:55Z</time>
      </trkpt>
      <trkpt lat="45.61782" lon="5.96801">
        <ele>1517.69</ele>
        <time>2021-06-10T08:20:08Z</time>
      </trkpt>
      <trkpt lat="45.61793" lon="5.96803">
        <ele>1519.12</ele>
        <time>2021-06-10T08:20:22Z</time>
      </trkpt>
      <trkpt lat="45.6181" lon="5.96816">
        <ele>1520.43</ele>
        <time>2021-06-10T08:20:39Z</time>
      </trkpt>
      <trkpt lat="45.61827" lon="5.96827">
        <ele>1520</ele>
        <time>2021-06-10T08:20:57Z</time>
      </trkpt>
      <trkpt lat="45.61845" lon="5.96837">
        <ele>1517.95</ele>
        <time>2021-06-10T08:21:16Z</time>
      </trkpt>
      <trkpt lat="45.61859" lon="5.9685">
        <ele>1517.49</ele>
        <time>2021-06-10T08:21:34Z</time>
      </trkpt>
      <trkpt lat="45.61862" lon="5.96855">
        <ele>1517.66</ele>
        <time>2021-06-10T08:21:41Z</time>
      </trkpt>
      <trkpt lat="45.61869" lon="5.96859">
        <ele>1517.89</ele>
        <time>2021-06-10T08:21:55Z</time>
      </trkpt>
      <trkpt lat="45.61875" lon="5.96862">
        <ele>1518.13</ele>
        <time>2021-06-10T08:22:17Z</time>
      </trkpt>
      <trkpt lat="45.6188" lon="5.96874">
        <ele>1518.27</ele>
        <time>2021-06-10T08:22:38Z</time>
      </trkpt>
      <trkpt lat="45.61894" lon="5.96884">
        <ele>1519.44</ele>
        <time>2021-06-10T08:22:59Z</time>
      </trkpt>
      <trkpt lat="45.61895" lon="5.96884">
        <ele>1515</ele>
        <time>2021-06-10T08:23:04Z</time>
      </trkpt>
      <trkpt lat="45.61895" lon="5.96884">
        <ele>1518.25</ele>
        <time>2021-06-10T08:23:05Z</time>
      </trkpt>
      <trkpt lat="45.61906" lon="5.96893">
        <ele>1518.21</ele>
        <time>2021-06-10T08:23:38Z</time>
      </trkpt>
      <trkpt lat="45.61905" lon="5.96893">
        <ele>1518.29</ele>
        <time>2021-06-10T08:23:39Z</time>
      </trkpt>
      <trkpt lat="45.6191" lon="5.96905">
        <ele>1514.4</ele>
        <time>2021-06-10T08:23:47Z</time>
      </trkpt>
      <trkpt lat="45.6191" lon="5.96906">
        <ele>1519.15</ele>
        <time>2021-06-10T08:23:48Z</time>
      </trkpt>
      <trkpt lat="45.61912" lon="5.96912">
        <ele>1515.68</ele>
        <time>2021-06-10T08:23:52Z</time>
      </trkpt>
      <trkpt lat="45.6192" lon="5.96927">
        <ele>1514.17</ele>
        <time>2021-06-10T08:24:03Z</time>
      </trkpt>
      <trkpt lat="45.61921" lon="5.96933">
        <ele>1513.25</ele>
        <time>2021-06-10T08:24:06Z</time>
      </trkpt>
      <trkpt lat="45.61921" lon="5.96944">
        <ele>1512.06</ele>
        <time>2021-06-10T08:24:11Z</time>
      </trkpt>
      <trkpt lat="45.61931" lon="5.96962">
        <ele>1508.44</ele>
        <time>2021-06-10T08:24:24Z</time>
      </trkpt>
      <trkpt lat="45.61946" lon="5.96984">
        <ele>1505.61</ele>
        <time>2021-06-10T08:24:41Z</time>
      </trkpt>
      <trkpt lat="45.61959" lon="5.97005">
        <ele>1503.67</ele>
        <time>2021-06-10T08:25:00Z</time>
      </trkpt>
      <trkpt lat="45.6196" lon="5.97006">
        <ele>1503.65</ele>
        <time>2021-06-10T08:25:01Z</time>
      </trkpt>
      <trkpt lat="45.6197" lon="5.97021">
        <ele>1500.75</ele>
        <time>2021-06-10T08:25:14Z</time>
      </trkpt>
      <trkpt lat="45.61975" lon="5.97035">
        <ele>1497.6</ele>
        <time>2021-06-10T08:25:25Z</time>
      </trkpt>
      <trkpt lat="45.61984" lon="5.9705">
        <ele>1494.52</ele>
        <time>2021-06-10T08:25:37Z</time>
      </trkpt>
      <trkpt lat="45.61988" lon="5.97069">
        <ele>1492.77</ele>
        <time>2021-06-10T08:25:52Z</time>
      </trkpt>
      <trkpt lat="45.61992" lon="5.97082">
        <ele>1489.71</ele>
        <time>2021-06-10T08:26:04Z</time>
      </trkpt>
      <trkpt lat="45.61997" lon="5.9709">
        <ele>1486.89</ele>
        <time>2021-06-10T08:26:11Z</time>
      </trkpt>
      <trkpt lat="45.62002" lon="5.97115">
        <ele>1486.32</ele>
        <time>2021-06-10T08:26:23Z</time>
      </trkpt>
      <trkpt lat="45.6201" lon="5.97123">
        <ele>1486.43</ele>
        <time>2021-06-10T08:26:31Z</time>
      </trkpt>
      <trkpt lat="45.62023" lon="5.97132">
        <ele>1484.57</ele>
        <time>2021-06-10T08:26:42Z</time>
      </trkpt>
      <trkpt lat="45.62035" lon="5.97141">
        <ele>1481.13</ele>
        <time>2021-06-10T08:26:59Z</time>
      </trkpt>
      <trkpt lat="45.62036" lon="5.97149">
        <ele>1479.71</ele>
        <time>2021-06-10T08:27:09Z</time>
      </trkpt>
      <trkpt lat="45.6204" lon="5.97169">
        <ele>1476.57</ele>
        <time>2021-06-10T08:27:30Z</time>
      </trkpt>
      <trkpt lat="45.62042" lon="5.97171">
        <ele>1475.32</ele>
        <time>2021-06-10T08:27:33Z</time>
      </trkpt>
      <trkpt lat="45.62042" lon="5.97174">
        <ele>1474.52</ele>
        <time>2021-06-10T08:27:36Z</time>
      </trkpt>
      <trkpt lat="45.62043" lon="5.97184">
        <ele>1473.3</ele>
        <time>2021-06-10T08:27:50Z</time>
      </trkpt>
      <trkpt lat="45.62043" lon="5.97199">
        <ele>1470.6</ele>
        <time>2021-06-10T08:28:03Z</time>
      </trkpt>
      <trkpt lat="45.62042" lon="5.97204">
        <ele>1470.22</ele>
        <time>2021-06-10T08:28:07Z</time>
      </trkpt>
      <trkpt lat="45.6202" lon="5.97206">
        <ele>1469.18</ele>
        <time>2021-06-10T08:28:29Z</time>
      </trkpt>
      <trkpt lat="45.61998" lon="5.97201">
        <ele>1466.94</ele>
        <time>2021-06-10T08:28:49Z</time>
      </trkpt>
      <trkpt lat="45.61988" lon="5.97199">
        <ele>1465.27</ele>
        <time>2021-06-10T08:29:01Z</time>
      </trkpt>
      <trkpt lat="45.61982" lon="5.97197">
        <ele>1465.2</ele>
        <time>2021-06-10T08:29:13Z</time>
      </trkpt>
      <trkpt lat="45.61972" lon="5.97211">
        <ele>1465.2</ele>
        <time>2021-06-10T08:29:38Z</time>
      </trkpt>
      <trkpt lat="45.61972" lon="5.97211">
        <ele>1465.29</ele>
        <time>2021-06-10T08:29:40Z</time>
      </trkpt>
      <trkpt lat="45.61986" lon="5.97199">
        <ele>1468.03</ele>
        <time>2021-06-10T08:30:00Z</time>
      </trkpt>
      <trkpt lat="45.62002" lon="5.97201">
        <ele>1467.44</ele>
        <time>2021-06-10T08:30:18Z</time>
      </trkpt>
      <trkpt lat="45.62021" lon="5.97209">
        <ele>1468.27</ele>
        <time>2021-06-10T08:30:33Z</time>
      </trkpt>
      <trkpt lat="45.62034" lon="5.97215">
        <ele>1465.47</ele>
        <time>2021-06-10T08:30:46Z</time>
      </trkpt>
      <trkpt lat="45.62054" lon="5.97223">
        <ele>1463.07</ele>
        <time>2021-06-10T08:30:59Z</time>
      </trkpt>
      <trkpt lat="45.62066" lon="5.97244">
        <ele>1460.89</ele>
        <time>2021-06-10T08:31:18Z</time>
      </trkpt>
      <trkpt lat="45.62071" lon="5.97258">
        <ele>1458.09</ele>
        <time>2021-06-10T08:31:31Z</time>
      </trkpt>
      <trkpt lat="45.62084" lon="5.9729">
        <ele>1455.75</ele>
        <time>2021-06-10T08:31:53Z</time>
      </trkpt>
      <trkpt lat="45.62102" lon="5.97312">
        <ele>1452.66</ele>
        <time>2021-06-10T08:32:07Z</time>
      </trkpt>
      <trkpt lat="45.62106" lon="5.97314">
        <ele>1452.18</ele>
        <time>2021-06-10T08:32:10Z</time>
      </trkpt>
      <trkpt lat="45.6212" lon="5.97329">
        <ele>1450.42</ele>
        <time>2021-06-10T08:32:23Z</time>
      </trkpt>
      <trkpt lat="45.62136" lon="5.97341">
        <ele>1447.38</ele>
        <time>2021-06-10T08:32:40Z</time>
      </trkpt>
      <trkpt lat="45.62151" lon="5.97362">
        <ele>1444.99</ele>
        <time>2021-06-10T08:33:00Z</time>
      </trkpt>
      <trkpt lat="45.62171" lon="5.97386">
        <ele>1441.93</ele>
        <time>2021-06-10T08:33:17Z</time>
      </trkpt>
      <trkpt lat="45.6219" lon="5.97408">
        <ele>1438.9</ele>
        <time>2021-06-10T08:33:34Z</time>
      </trkpt>
      <trkpt lat="45.62199" lon="5.97421">
        <ele>1435.82</ele>
        <time>2021-06-10T08:33:51Z</time>
      </trkpt>
      <trkpt lat="45.62202" lon="5.97423">
        <ele>1435.53</ele>
        <time>2021-06-10T08:33:53Z</time>
      </trkpt>
      <trkpt lat="45.62215" lon="5.97438">
        <ele>1432.1</ele>
        <time>2021-06-10T08:34:08Z</time>
      </trkpt>
      <trkpt lat="45.62216" lon="5.97439">
        <ele>1431.46</ele>
        <time>2021-06-10T08:34:10Z</time>
      </trkpt>
      <trkpt lat="45.6222" lon="5.97446">
        <ele>1431.53</ele>
        <time>2021-06-10T08:34:17Z</time>
      </trkpt>
      <trkpt lat="45.62226" lon="5.97448">
        <ele>1431.63</ele>
        <time>2021-06-10T08:34:24Z</time>
      </trkpt>
      <trkpt lat="45.6223" lon="5.97452">
        <ele>1431.52</ele>
        <time>2021-06-10T08:34:57Z</time>
      </trkpt>
      <trkpt lat="45.62228" lon="5.9744">
        <ele>1433.54</ele>
        <time>2021-06-10T08:35:19Z</time>
      </trkpt>
      <trkpt lat="45.62217" lon="5.97423">
        <ele>1436.12</ele>
        <time>2021-06-10T08:35:38Z</time>
      </trkpt>
      <trkpt lat="45.62202" lon="5.97411">
        <ele>1439.56</ele>
        <time>2021-06-10T08:35:54Z</time>
      </trkpt>
      <trkpt lat="45.62186" lon="5.97395">
        <ele>1441.38</ele>
        <time>2021-06-10T08:36:13Z</time>
      </trkpt>
      <trkpt lat="45.62173" lon="5.97378">
        <ele>1444.38</ele>
        <time>2021-06-10T08:36:37Z</time>
      </trkpt>
      <trkpt lat="45.62168" lon="5.97368">
        <ele>1445.74</ele>
        <time>2021-06-10T08:36:51Z</time>
      </trkpt>
      <trkpt lat="45.62162" lon="5.97362">
        <ele>1446.57</ele>
        <time>2021-06-10T08:37:00Z</time>
      </trkpt>
      <trkpt lat="45.62161" lon="5.9736">
        <ele>1446.63</ele>
        <time>2021-06-10T08:37:02Z</time>
      </trkpt>
      <trkpt lat="45.62158" lon="5.97356">
        <ele>1447.23</ele>
        <time>2021-06-10T08:37:04Z</time>
      </trkpt>
      <trkpt lat="45.62158" lon="5.97353">
        <ele>1447.27</ele>
        <time>2021-06-10T08:37:06Z</time>
      </trkpt>
      <trkpt lat="45.62134" lon="5.97325">
        <ele>1449.34</ele>
        <time>2021-06-10T08:37:29Z</time>
      </trkpt>
      <trkpt lat="45.62131" lon="5.97322">
        <ele>1450.23</ele>
        <time>2021-06-10T08:37:36Z</time>
      </trkpt>
      <trkpt lat="45.62121" lon="5.97308">
        <ele>1451.98</ele>
        <time>2021-06-10T08:37:52Z</time>
      </trkpt>
      <trkpt lat="45.62109" lon="5.97292">
        <ele>1454.36</ele>
        <time>2021-06-10T08:38:15Z</time>
      </trkpt>
      <trkpt lat="45.62103" lon="5.97271">
        <ele>1455.16</ele>
        <time>2021-06-10T08:38:34Z</time>
      </trkpt>
      <trkpt lat="45.62102" lon="5.97268">
        <ele>1455.94</ele>
        <time>2021-06-10T08:38:37Z</time>
      </trkpt>
      <trkpt lat="45.62084" lon="5.97247">
        <ele>1457.42</ele>
        <time>2021-06-10T08:38:58Z</time>
      </trkpt>
      <trkpt lat="45.62082" lon="5.97241">
        <ele>1457.07</ele>
        <time>2021-06-10T08:39:05Z</time>
      </trkpt>
      <trkpt lat="45.6208" lon="5.9724">
        <ele>1457.31</ele>
        <time>2021-06-10T08:39:07Z</time>
      </trkpt>
      <trkpt lat="45.62072" lon="5.9725">
        <ele>1458.98</ele>
        <time>2021-06-10T08:39:25Z</time>
      </trkpt>
      <trkpt lat="45.62067" lon="5.97259">
        <ele>1459.45</ele>
        <time>2021-06-10T08:39:44Z</time>
      </trkpt>
      <trkpt lat="45.62057" lon="5.97259">
        <ele>1460.64</ele>
        <time>2021-06-10T08:40:05Z</time>
      </trkpt>
      <trkpt lat="45.6204" lon="5.97259">
        <ele>1463.45</ele>
        <time>2021-06-10T08:40:25Z</time>
      </trkpt>
      <trkpt lat="45.62026" lon="5.97253">
        <ele>1463.05</ele>
        <time>2021-06-10T08:40:39Z</time>
      </trkpt>
      <trkpt lat="45.62014" lon="5.97251">
        <ele>1465.17</ele>
        <time>2021-06-10T08:40:57Z</time>
      </trkpt>
      <trkpt lat="45.62002" lon="5.97255">
        <ele>1462.5</ele>
        <time>2021-06-10T08:41:16Z</time>
      </trkpt>
      <trkpt lat="45.61992" lon="5.97256">
        <ele>1459.48</ele>
        <time>2021-06-10T08:41:30Z</time>
      </trkpt>
      <trkpt lat="45.61977" lon="5.97267">
        <ele>1460.56</ele>
        <time>2021-06-10T08:41:48Z</time>
      </trkpt>
      <trkpt lat="45.61971" lon="5.97275">
        <ele>1460.38</ele>
        <time>2021-06-10T08:42:09Z</time>
      </trkpt>
      <trkpt lat="45.61972" lon="5.97288">
        <ele>1457.23</ele>
        <time>2021-06-10T08:42:20Z</time>
      </trkpt>
      <trkpt lat="45.61972" lon="5.97306">
        <ele>1454.1</ele>
        <time>2021-06-10T08:42:31Z</time>
      </trkpt>
      <trkpt lat="45.61981" lon="5.97313">
        <ele>1453.37</ele>
        <time>2021-06-10T08:42:45Z</time>
      </trkpt>
      <trkpt lat="45.61984" lon="5.97321">
        <ele>1450.22</ele>
        <time>2021-06-10T08:42:52Z</time>
      </trkpt>
      <trkpt lat="45.61995" lon="5.97341">
        <ele>1450.05</ele>
        <time>2021-06-10T08:43:11Z</time>
      </trkpt>
      <trkpt lat="45.62012" lon="5.9735">
        <ele>1450.68</ele>
        <time>2021-06-10T08:43:32Z</time>
      </trkpt>
      <trkpt lat="45.62025" lon="5.97351">
        <ele>1451.15</ele>
        <time>2021-06-10T08:43:52Z</time>
      </trkpt>
      <trkpt lat="45.62025" lon="5.97362">
        <ele>1449.49</ele>
        <time>2021-06-10T08:44:09Z</time>
      </trkpt>
      <trkpt lat="45.62036" lon="5.97367">
        <ele>1447.46</ele>
        <time>2021-06-10T08:44:33Z</time>
      </trkpt>
      <trkpt lat="45.62043" lon="5.97377">
        <ele>1446.44</ele>
        <time>2021-06-10T08:44:50Z</time>
      </trkpt>
      <trkpt lat="45.62042" lon="5.97384">
        <ele>1447.4</ele>
        <time>2021-06-10T08:45:10Z</time>
      </trkpt>
      <trkpt lat="45.62034" lon="5.9739">
        <ele>1446.98</ele>
        <time>2021-06-10T08:45:28Z</time>
      </trkpt>
      <trkpt lat="45.62026" lon="5.97395">
        <ele>1444.64</ele>
        <time>2021-06-10T08:45:45Z</time>
      </trkpt>
      <trkpt lat="45.62023" lon="5.97404">
        <ele>1443.84</ele>
        <time>2021-06-10T08:46:01Z</time>
      </trkpt>
      <trkpt lat="45.6202" lon="5.97408">
        <ele>1442.46</ele>
        <time>2021-06-10T08:46:08Z</time>
      </trkpt>
      <trkpt lat="45.62018" lon="5.97415">
        <ele>1440.07</ele>
        <time>2021-06-10T08:46:17Z</time>
      </trkpt>
      <trkpt lat="45.62013" lon="5.97426">
        <ele>1436.71</ele>
        <time>2021-06-10T08:46:29Z</time>
      </trkpt>
      <trkpt lat="45.62003" lon="5.97439">
        <ele>1433.63</ele>
        <time>2021-06-10T08:46:44Z</time>
      </trkpt>
      <trkpt lat="45.61994" lon="5.97444">
        <ele>1430.51</ele>
        <time>2021-06-10T08:46:57Z</time>
      </trkpt>
      <trkpt lat="45.61982" lon="5.97444">
        <ele>1429.86</ele>
        <time>2021-06-10T08:47:15Z</time>
      </trkpt>
      <trkpt lat="45.61973" lon="5.97442">
        <ele>1431.05</ele>
        <time>2021-06-10T08:47:32Z</time>
      </trkpt>
      <trkpt lat="45.61965" lon="5.97435">
        <ele>1430.44</ele>
        <time>2021-06-10T08:47:46Z</time>
      </trkpt>
      <trkpt lat="45.61963" lon="5.97434">
        <ele>1429.8</ele>
        <time>2021-06-10T08:47:51Z</time>
      </trkpt>
      <trkpt lat="45.61947" lon="5.97439">
        <ele>1428.82</ele>
        <time>2021-06-10T08:48:03Z</time>
      </trkpt>
      <trkpt lat="45.61932" lon="5.97452">
        <ele>1427.07</ele>
        <time>2021-06-10T08:48:22Z</time>
      </trkpt>
      <trkpt lat="45.61922" lon="5.97454">
        <ele>1427.52</ele>
        <time>2021-06-10T08:48:39Z</time>
      </trkpt>
      <trkpt lat="45.61914" lon="5.97463">
        <ele>1424.38</ele>
        <time>2021-06-10T08:48:53Z</time>
      </trkpt>
      <trkpt lat="45.61902" lon="5.97467">
        <ele>1422.94</ele>
        <time>2021-06-10T08:49:11Z</time>
      </trkpt>
      <trkpt lat="45.61891" lon="5.97479">
        <ele>1419.51</ele>
        <time>2021-06-10T08:49:26Z</time>
      </trkpt>
      <trkpt lat="45.61884" lon="5.97483">
        <ele>1418.75</ele>
        <time>2021-06-10T08:49:43Z</time>
      </trkpt>
      <trkpt lat="45.61872" lon="5.97491">
        <ele>1415.58</ele>
        <time>2021-06-10T08:49:59Z</time>
      </trkpt>
      <trkpt lat="45.61862" lon="5.97498">
        <ele>1413.2</ele>
        <time>2021-06-10T08:50:15Z</time>
      </trkpt>
      <trkpt lat="45.61848" lon="5.97495">
        <ele>1413.42</ele>
        <time>2021-06-10T08:50:32Z</time>
      </trkpt>
      <trkpt lat="45.61829" lon="5.97498">
        <ele>1411.29</ele>
        <time>2021-06-10T08:50:51Z</time>
      </trkpt>
      <trkpt lat="45.61816" lon="5.97498">
        <ele>1412.5</ele>
        <time>2021-06-10T08:51:09Z</time>
      </trkpt>
      <trkpt lat="45.61799" lon="5.97501">
        <ele>1410.91</ele>
        <time>2021-06-10T08:51:25Z</time>
      </trkpt>
      <trkpt lat="45.61787" lon="5.97504">
        <ele>1409.12</ele>
        <time>2021-06-10T08:51:41Z</time>
      </trkpt>
      <trkpt lat="45.61779" lon="5.97511">
        <ele>1406.63</ele>
        <time>2021-06-10T08:51:59Z</time>
      </trkpt>
      <trkpt lat="45.61765" lon="5.97511">
        <ele>1403.2</ele>
        <time>2021-06-10T08:52:19Z</time>
      </trkpt>
      <trkpt lat="45.61752" lon="5.97518">
        <ele>1399.97</ele>
        <time>2021-06-10T08:52:35Z</time>
      </trkpt>
      <trkpt lat="45.61742" lon="5.97518">
        <ele>1397.54</ele>
        <time>2021-06-10T08:52:53Z</time>
      </trkpt>
      <trkpt lat="45.61728" lon="5.97523">
        <ele>1395.74</ele>
        <time>2021-06-10T08:53:08Z</time>
      </trkpt>
      <trkpt lat="45.61719" lon="5.97533">
        <ele>1392.55</ele>
        <time>2021-06-10T08:53:24Z</time>
      </trkpt>
      <trkpt lat="45.6171" lon="5.97539">
        <ele>1391.21</ele>
        <time>2021-06-10T08:53:42Z</time>
      </trkpt>
      <trkpt lat="45.61702" lon="5.97542">
        <ele>1388.44</ele>
        <time>2021-06-10T08:53:57Z</time>
      </trkpt>
      <trkpt lat="45.61692" lon="5.97544">
        <ele>1386.71</ele>
        <time>2021-06-10T08:54:12Z</time>
      </trkpt>
      <trkpt lat="45.61682" lon="5.97542">
        <ele>1385.32</ele>
        <time>2021-06-10T08:54:26Z</time>
      </trkpt>
      <trkpt lat="45.61678" lon="5.97543">
        <ele>1382.2</ele>
        <time>2021-06-10T08:54:36Z</time>
      </trkpt>
      <trkpt lat="45.61674" lon="5.97545">
        <ele>1379.37</ele>
        <time>2021-06-10T08:54:44Z</time>
      </trkpt>
      <trkpt lat="45.61669" lon="5.97548">
        <ele>1376.17</ele>
        <time>2021-06-10T08:54:52Z</time>
      </trkpt>
      <trkpt lat="45.61659" lon="5.97554">
        <ele>1374.46</ele>
        <time>2021-06-10T08:55:09Z</time>
      </trkpt>
      <trkpt lat="45.61656" lon="5.97557">
        <ele>1373.61</ele>
        <time>2021-06-10T08:55:25Z</time>
      </trkpt>
      <trkpt lat="45.61652" lon="5.97558">
        <ele>1374.78</ele>
        <time>2021-06-10T08:55:47Z</time>
      </trkpt>
      <trkpt lat="45.61647" lon="5.97561">
        <ele>1373.76</ele>
        <time>2021-06-10T08:56:03Z</time>
      </trkpt>
      <trkpt lat="45.61641" lon="5.97563">
        <ele>1372.49</ele>
        <time>2021-06-10T08:56:17Z</time>
      </trkpt>
      <trkpt lat="45.6163" lon="5.97567">
        <ele>1369.56</ele>
        <time>2021-06-10T08:56:32Z</time>
      </trkpt>
      <trkpt lat="45.6162" lon="5.97567">
        <ele>1368.07</ele>
        <time>2021-06-10T08:56:51Z</time>
      </trkpt>
      <trkpt lat="45.6161" lon="5.97575">
        <ele>1364.74</ele>
        <time>2021-06-10T08:57:05Z</time>
      </trkpt>
      <trkpt lat="45.6161" lon="5.97575">
        <ele>1364.99</ele>
        <time>2021-06-10T08:57:06Z</time>
      </trkpt>
      <trkpt lat="45.61604" lon="5.97576">
        <ele>1362.21</ele>
        <time>2021-06-10T08:57:23Z</time>
      </trkpt>
      <trkpt lat="45.61597" lon="5.97576">
        <ele>1359.12</ele>
        <time>2021-06-10T08:57:38Z</time>
      </trkpt>
      <trkpt lat="45.61594" lon="5.97578">
        <ele>1355.86</ele>
        <time>2021-06-10T08:57:48Z</time>
      </trkpt>
      <trkpt lat="45.61586" lon="5.97583">
        <ele>1352.71</ele>
        <time>2021-06-10T08:57:58Z</time>
      </trkpt>
      <trkpt lat="45.61572" lon="5.97594">
        <ele>1351.91</ele>
        <time>2021-06-10T08:58:16Z</time>
      </trkpt>
      <trkpt lat="45.61558" lon="5.97606">
        <ele>1350.48</ele>
        <time>2021-06-10T08:58:33Z</time>
      </trkpt>
      <trkpt lat="45.61544" lon="5.97617">
        <ele>1347.39</ele>
        <time>2021-06-10T08:58:52Z</time>
      </trkpt>
      <trkpt lat="45.61542" lon="5.9762">
        <ele>1345.63</ele>
        <time>2021-06-10T08:58:56Z</time>
      </trkpt>
      <trkpt lat="45.61532" lon="5.97631">
        <ele>1342.83</ele>
        <time>2021-06-10T08:59:14Z</time>
      </trkpt>
      <trkpt lat="45.61528" lon="5.97639">
        <ele>1339.76</ele>
        <time>2021-06-10T08:59:26Z</time>
      </trkpt>
      <trkpt lat="45.61527" lon="5.97642">
        <ele>1338.06</ele>
        <time>2021-06-10T08:59:30Z</time>
      </trkpt>
      <trkpt lat="45.61524" lon="5.9765">
        <ele>1334.61</ele>
        <time>2021-06-10T08:59:42Z</time>
      </trkpt>
      <trkpt lat="45.61515" lon="5.97656">
        <ele>1333.38</ele>
        <time>2021-06-10T09:00:00Z</time>
      </trkpt>
      <trkpt lat="45.61501" lon="5.97651">
        <ele>1332.37</ele>
        <time>2021-06-10T09:00:20Z</time>
      </trkpt>
      <trkpt lat="45.61499" lon="5.97652">
        <ele>1330.85</ele>
        <time>2021-06-10T09:00:24Z</time>
      </trkpt>
      <trkpt lat="45.61494" lon="5.97655">
        <ele>1331.34</ele>
        <time>2021-06-10T09:00:42Z</time>
      </trkpt>
      <trkpt lat="45.6149" lon="5.97655">
        <ele>1330.7</ele>
        <time>2021-06-10T09:01:02Z</time>
      </trkpt>
      <trkpt lat="45.61486" lon="5.97648">
        <ele>1330.45</ele>
        <time>2021-06-10T09:01:20Z</time>
      </trkpt>
      <trkpt lat="45.61474" lon="5.97649">
        <ele>1328.25</ele>
        <time>2021-06-10T09:01:37Z</time>
      </trkpt>
      <trkpt lat="45.61469" lon="5.97653">
        <ele>1325.91</ele>
        <time>2021-06-10T09:01:53Z</time>
      </trkpt>
      <trkpt lat="45.61466" lon="5.9766">
        <ele>1323.22</ele>
        <time>2021-06-10T09:02:08Z</time>
      </trkpt>
      <trkpt lat="45.61459" lon="5.97667">
        <ele>1320.09</ele>
        <time>2021-06-10T09:02:23Z</time>
      </trkpt>
      <trkpt lat="45.61448" lon="5.97677">
        <ele>1317.35</ele>
        <time>2021-06-10T09:02:38Z</time>
      </trkpt>
      <trkpt lat="45.61443" lon="5.97691">
        <ele>1314.73</ele>
        <time>2021-06-10T09:02:53Z</time>
      </trkpt>
      <trkpt lat="45.61437" lon="5.97697">
        <ele>1313.07</ele>
        <time>2021-06-10T09:03:01Z</time>
      </trkpt>
      <trkpt lat="45.61427" lon="5.97699">
        <ele>1313.71</ele>
        <time>2021-06-10T09:03:16Z</time>
      </trkpt>
      <trkpt lat="45.61413" lon="5.97697">
        <ele>1310.87</ele>
        <time>2021-06-10T09:03:38Z</time>
      </trkpt>
      <trkpt lat="45.614" lon="5.977">
        <ele>1307.64</ele>
        <time>2021-06-10T09:03:54Z</time>
      </trkpt>
      <trkpt lat="45.61384" lon="5.97702">
        <ele>1304.52</ele>
        <time>2021-06-10T09:04:10Z</time>
      </trkpt>
      <trkpt lat="45.61378" lon="5.9771">
        <ele>1301.41</ele>
        <time>2021-06-10T09:04:23Z</time>
      </trkpt>
      <trkpt lat="45.61369" lon="5.97714">
        <ele>1299.27</ele>
        <time>2021-06-10T09:04:51Z</time>
      </trkpt>
      <trkpt lat="45.61369" lon="5.97715">
        <ele>1299.23</ele>
        <time>2021-06-10T09:04:52Z</time>
      </trkpt>
      <trkpt lat="45.6136" lon="5.97715">
        <ele>1298.19</ele>
        <time>2021-06-10T09:05:14Z</time>
      </trkpt>
      <trkpt lat="45.61356" lon="5.9772">
        <ele>1295.85</ele>
        <time>2021-06-10T09:05:21Z</time>
      </trkpt>
      <trkpt lat="45.61348" lon="5.97729">
        <ele>1292.74</ele>
        <time>2021-06-10T09:05:34Z</time>
      </trkpt>
      <trkpt lat="45.61337" lon="5.97738">
        <ele>1289.69</ele>
        <time>2021-06-10T09:05:47Z</time>
      </trkpt>
      <trkpt lat="45.61325" lon="5.97742">
        <ele>1287.89</ele>
        <time>2021-06-10T09:06:05Z</time>
      </trkpt>
      <trkpt lat="45.61307" lon="5.97749">
        <ele>1286.63</ele>
        <time>2021-06-10T09:06:22Z</time>
      </trkpt>
      <trkpt lat="45.61306" lon="5.97751">
        <ele>1286.89</ele>
        <time>2021-06-10T09:06:25Z</time>
      </trkpt>
      <trkpt lat="45.61295" lon="5.97757">
        <ele>1286.49</ele>
        <time>2021-06-10T09:06:45Z</time>
      </trkpt>
      <trkpt lat="45.61286" lon="5.97766">
        <ele>1283.5</ele>
        <time>2021-06-10T09:07:04Z</time>
      </trkpt>
      <trkpt lat="45.61279" lon="5.9777">
        <ele>1281.55</ele>
        <time>2021-06-10T09:07:11Z</time>
      </trkpt>
      <trkpt lat="45.61266" lon="5.97769">
        <ele>1279.91</ele>
        <time>2021-06-10T09:07:27Z</time>
      </trkpt>
      <trkpt lat="45.6126" lon="5.97775">
        <ele>1279.61</ele>
        <time>2021-06-10T09:07:49Z</time>
      </trkpt>
      <trkpt lat="45.61258" lon="5.97779">
        <ele>1279.76</ele>
        <time>2021-06-10T09:08:19Z</time>
      </trkpt>
      <trkpt lat="45.61257" lon="5.97778">
        <ele>1278.56</ele>
        <time>2021-06-10T09:08:43Z</time>
      </trkpt>
      <trkpt lat="45.61256" lon="5.97783">
        <ele>1275.43</ele>
        <time>2021-06-10T09:08:54Z</time>
      </trkpt>
      <trkpt lat="45.61255" lon="5.97787">
        <ele>1274.19</ele>
        <time>2021-06-10T09:09:01Z</time>
      </trkpt>
      <trkpt lat="45.61249" lon="5.97794">
        <ele>1272.69</ele>
        <time>2021-06-10T09:09:23Z</time>
      </trkpt>
      <trkpt lat="45.61241" lon="5.978">
        <ele>1270.8</ele>
        <time>2021-06-10T09:09:40Z</time>
      </trkpt>
      <trkpt lat="45.61235" lon="5.97807">
        <ele>1269.64</ele>
        <time>2021-06-10T09:09:59Z</time>
      </trkpt>
      <trkpt lat="45.61225" lon="5.97803">
        <ele>1267.63</ele>
        <time>2021-06-10T09:10:18Z</time>
      </trkpt>
      <trkpt lat="45.61215" lon="5.97803">
        <ele>1265.8</ele>
        <time>2021-06-10T09:10:32Z</time>
      </trkpt>
      <trkpt lat="45.61207" lon="5.97808">
        <ele>1262.69</ele>
        <time>2021-06-10T09:10:46Z</time>
      </trkpt>
      <trkpt lat="45.61202" lon="5.97813">
        <ele>1259.61</ele>
        <time>2021-06-10T09:10:57Z</time>
      </trkpt>
      <trkpt lat="45.61198" lon="5.97816">
        <ele>1256.55</ele>
        <time>2021-06-10T09:11:11Z</time>
      </trkpt>
      <trkpt lat="45.61195" lon="5.97823">
        <ele>1253.42</ele>
        <time>2021-06-10T09:11:22Z</time>
      </trkpt>
      <trkpt lat="45.61189" lon="5.97839">
        <ele>1250.36</ele>
        <time>2021-06-10T09:11:39Z</time>
      </trkpt>
      <trkpt lat="45.61184" lon="5.97856">
        <ele>1247.07</ele>
        <time>2021-06-10T09:11:56Z</time>
      </trkpt>
      <trkpt lat="45.61177" lon="5.97869">
        <ele>1243.92</ele>
        <time>2021-06-10T09:12:07Z</time>
      </trkpt>
      <trkpt lat="45.6117" lon="5.97888">
        <ele>1241.23</ele>
        <time>2021-06-10T09:12:23Z</time>
      </trkpt>
      <trkpt lat="45.61154" lon="5.97909">
        <ele>1238.71</ele>
        <time>2021-06-10T09:12:42Z</time>
      </trkpt>
      <trkpt lat="45.61151" lon="5.9791">
        <ele>1238.47</ele>
        <time>2021-06-10T09:12:45Z</time>
      </trkpt>
      <trkpt lat="45.61142" lon="5.97922">
        <ele>1237.8</ele>
        <time>2021-06-10T09:12:57Z</time>
      </trkpt>
      <trkpt lat="45.61136" lon="5.97936">
        <ele>1235.09</ele>
        <time>2021-06-10T09:13:14Z</time>
      </trkpt>
      <trkpt lat="45.61131" lon="5.97955">
        <ele>1232.86</ele>
        <time>2021-06-10T09:13:30Z</time>
      </trkpt>
      <trkpt lat="45.61128" lon="5.97963">
        <ele>1232.93</ele>
        <time>2021-06-10T09:13:38Z</time>
      </trkpt>
      <trkpt lat="45.61127" lon="5.97973">
        <ele>1231.62</ele>
        <time>2021-06-10T09:13:57Z</time>
      </trkpt>
      <trkpt lat="45.61126" lon="5.97976">
        <ele>1230.23</ele>
        <time>2021-06-10T09:14:00Z</time>
      </trkpt>
      <trkpt lat="45.61125" lon="5.97981">
        <ele>1228.78</ele>
        <time>2021-06-10T09:14:03Z</time>
      </trkpt>
      <trkpt lat="45.61123" lon="5.97994">
        <ele>1227.45</ele>
        <time>2021-06-10T09:14:17Z</time>
      </trkpt>
      <trkpt lat="45.61121" lon="5.97996">
        <ele>1227.49</ele>
        <time>2021-06-10T09:14:19Z</time>
      </trkpt>
      <trkpt lat="45.6112" lon="5.97997">
        <ele>1227.22</ele>
        <time>2021-06-10T09:14:21Z</time>
      </trkpt>
      <trkpt lat="45.61112" lon="5.98003">
        <ele>1226.33</ele>
        <time>2021-06-10T09:14:29Z</time>
      </trkpt>
      <trkpt lat="45.61104" lon="5.98008">
        <ele>1226.12</ele>
        <time>2021-06-10T09:14:43Z</time>
      </trkpt>
      <trkpt lat="45.61097" lon="5.98008">
        <ele>1225.62</ele>
        <time>2021-06-10T09:14:51Z</time>
      </trkpt>
      <trkpt lat="45.61086" lon="5.98012">
        <ele>1224.99</ele>
        <time>2021-06-10T09:15:07Z</time>
      </trkpt>
      <trkpt lat="45.61082" lon="5.98023">
        <ele>1223.35</ele>
        <time>2021-06-10T09:15:16Z</time>
      </trkpt>
      <trkpt lat="45.61081" lon="5.98055">
        <ele>1221.63</ele>
        <time>2021-06-10T09:15:35Z</time>
      </trkpt>
      <trkpt lat="45.61087" lon="5.98083">
        <ele>1220.78</ele>
        <time>2021-06-10T09:15:54Z</time>
      </trkpt>
      <trkpt lat="45.61098" lon="5.98103">
        <ele>1220.09</ele>
        <time>2021-06-10T09:16:11Z</time>
      </trkpt>
      <trkpt lat="45.611" lon="5.98116">
        <ele>1219.68</ele>
        <time>2021-06-10T09:16:29Z</time>
      </trkpt>
      <trkpt lat="45.61098" lon="5.98119">
        <ele>1219.98</ele>
        <time>2021-06-10T09:16:36Z</time>
      </trkpt>
      <trkpt lat="45.61095" lon="5.98132">
        <ele>1219</ele>
        <time>2021-06-10T09:16:53Z</time>
      </trkpt>
      <trkpt lat="45.61098" lon="5.98129">
        <ele>1218.94</ele>
        <time>2021-06-10T09:17:08Z</time>
      </trkpt>
      <trkpt lat="45.61104" lon="5.98135">
        <ele>1217.77</ele>
        <time>2021-06-10T09:17:26Z</time>
      </trkpt>
      <trkpt lat="45.61115" lon="5.98152">
        <ele>1215.62</ele>
        <time>2021-06-10T09:17:45Z</time>
      </trkpt>
      <trkpt lat="45.61125" lon="5.98171">
        <ele>1215.45</ele>
        <time>2021-06-10T09:17:57Z</time>
      </trkpt>
      <trkpt lat="45.61141" lon="5.98191">
        <ele>1213.18</ele>
        <time>2021-06-10T09:18:18Z</time>
      </trkpt>
      <trkpt lat="45.61154" lon="5.98227">
        <ele>1212.68</ele>
        <time>2021-06-10T09:18:37Z</time>
      </trkpt>
      <trkpt lat="45.61162" lon="5.98258">
        <ele>1212.8</ele>
        <time>2021-06-10T09:18:55Z</time>
      </trkpt>
      <trkpt lat="45.61166" lon="5.98289">
        <ele>1211.56</ele>
        <time>2021-06-10T09:19:13Z</time>
      </trkpt>
      <trkpt lat="45.61173" lon="5.98314">
        <ele>1208.91</ele>
        <time>2021-06-10T09:19:33Z</time>
      </trkpt>
      <trkpt lat="45.61177" lon="5.98341">
        <ele>1205.88</ele>
        <time>2021-06-10T09:19:49Z</time>
      </trkpt>
      <trkpt lat="45.61179" lon="5.98363">
        <ele>1203.41</ele>
        <time>2021-06-10T09:20:02Z</time>
      </trkpt>
      <trkpt lat="45.61183" lon="5.98405">
        <ele>1202.56</ele>
        <time>2021-06-10T09:20:22Z</time>
      </trkpt>
      <trkpt lat="45.61191" lon="5.98436">
        <ele>1202.71</ele>
        <time>2021-06-10T09:20:40Z</time>
      </trkpt>
      <trkpt lat="45.61197" lon="5.98465">
        <ele>1201.22</ele>
        <time>2021-06-10T09:20:59Z</time>
      </trkpt>
      <trkpt lat="45.61188" lon="5.98491">
        <ele>1200.45</ele>
        <time>2021-06-10T09:21:19Z</time>
      </trkpt>
      <trkpt lat="45.61173" lon="5.98515">
        <ele>1198.43</ele>
        <time>2021-06-10T09:21:38Z</time>
      </trkpt>
      <trkpt lat="45.61164" lon="5.98537">
        <ele>1195.75</ele>
        <time>2021-06-10T09:21:56Z</time>
      </trkpt>
      <trkpt lat="45.6116" lon="5.98556">
        <ele>1192.62</ele>
        <time>2021-06-10T09:22:09Z</time>
      </trkpt>
      <trkpt lat="45.61155" lon="5.98572">
        <ele>1190.37</ele>
        <time>2021-06-10T09:22:18Z</time>
      </trkpt>
      <trkpt lat="45.61148" lon="5.98596">
        <ele>1186.8</ele>
        <time>2021-06-10T09:22:34Z</time>
      </trkpt>
      <trkpt lat="45.61135" lon="5.98631">
        <ele>1183.83</ele>
        <time>2021-06-10T09:22:53Z</time>
      </trkpt>
      <trkpt lat="45.61127" lon="5.98654">
        <ele>1180.83</ele>
        <time>2021-06-10T09:23:07Z</time>
      </trkpt>
      <trkpt lat="45.61116" lon="5.98673">
        <ele>1178.92</ele>
        <time>2021-06-10T09:23:23Z</time>
      </trkpt>
      <trkpt lat="45.61115" lon="5.98689">
        <ele>1178.85</ele>
        <time>2021-06-10T09:23:56Z</time>
      </trkpt>
      <trkpt lat="45.61118" lon="5.98694">
        <ele>1177.36</ele>
        <time>2021-06-10T09:24:10Z</time>
      </trkpt>
      <trkpt lat="45.61122" lon="5.98709">
        <ele>1173.83</ele>
        <time>2021-06-10T09:24:21Z</time>
      </trkpt>
      <trkpt lat="45.61123" lon="5.98713">
        <ele>1173.61</ele>
        <time>2021-06-10T09:24:23Z</time>
      </trkpt>
      <trkpt lat="45.61119" lon="5.98726">
        <ele>1171.69</ele>
        <time>2021-06-10T09:24:34Z</time>
      </trkpt>
      <trkpt lat="45.61118" lon="5.98753">
        <ele>1168.76</ele>
        <time>2021-06-10T09:24:52Z</time>
      </trkpt>
      <trkpt lat="45.61118" lon="5.98782">
        <ele>1165.49</ele>
        <time>2021-06-10T09:25:10Z</time>
      </trkpt>
      <trkpt lat="45.61107" lon="5.98807">
        <ele>1163.69</ele>
        <time>2021-06-10T09:25:27Z</time>
      </trkpt>
      <trkpt lat="45.61095" lon="5.98832">
        <ele>1162.01</ele>
        <time>2021-06-10T09:25:45Z</time>
      </trkpt>
      <trkpt lat="45.61101" lon="5.9886">
        <ele>1160.51</ele>
        <time>2021-06-10T09:26:05Z</time>
      </trkpt>
      <trkpt lat="45.61103" lon="5.98895">
        <ele>1158.93</ele>
        <time>2021-06-10T09:26:25Z</time>
      </trkpt>
      <trkpt lat="45.61093" lon="5.98931">
        <ele>1157.26</ele>
        <time>2021-06-10T09:26:43Z</time>
      </trkpt>
      <trkpt lat="45.61089" lon="5.98951">
        <ele>1154.1</ele>
        <time>2021-06-10T09:26:58Z</time>
      </trkpt>
      <trkpt lat="45.61076" lon="5.98972">
        <ele>1150.87</ele>
        <time>2021-06-10T09:27:13Z</time>
      </trkpt>
      <trkpt lat="45.61072" lon="5.98982">
        <ele>1147.76</ele>
        <time>2021-06-10T09:27:22Z</time>
      </trkpt>
      <trkpt lat="45.61069" lon="5.98999">
        <ele>1144.76</ele>
        <time>2021-06-10T09:27:33Z</time>
      </trkpt>
      <trkpt lat="45.61065" lon="5.99015">
        <ele>1141.89</ele>
        <time>2021-06-10T09:27:44Z</time>
      </trkpt>
      <trkpt lat="45.61057" lon="5.99054">
        <ele>1138.49</ele>
        <time>2021-06-10T09:28:01Z</time>
      </trkpt>
      <trkpt lat="45.61063" lon="5.99072">
        <ele>1136.79</ele>
        <time>2021-06-10T09:28:12Z</time>
      </trkpt>
      <trkpt lat="45.61075" lon="5.99093">
        <ele>1133.57</ele>
        <time>2021-06-10T09:28:28Z</time>
      </trkpt>
      <trkpt lat="45.61079" lon="5.99094">
        <ele>1133.35</ele>
        <time>2021-06-10T09:28:30Z</time>
      </trkpt>
      <trkpt lat="45.61087" lon="5.99102">
        <ele>1132.15</ele>
        <time>2021-06-10T09:28:37Z</time>
      </trkpt>
      <trkpt lat="45.61095" lon="5.99113">
        <ele>1130.94</ele>
        <time>2021-06-10T09:28:43Z</time>
      </trkpt>
      <trkpt lat="45.61106" lon="5.99132">
        <ele>1128.78</ele>
        <time>2021-06-10T09:28:53Z</time>
      </trkpt>
      <trkpt lat="45.61117" lon="5.99148">
        <ele>1126.76</ele>
        <time>2021-06-10T09:29:03Z</time>
      </trkpt>
      <trkpt lat="45.61131" lon="5.9916">
        <ele>1125.15</ele>
        <time>2021-06-10T09:29:13Z</time>
      </trkpt>
      <trkpt lat="45.61147" lon="5.99182">
        <ele>1121.95</ele>
        <time>2021-06-10T09:29:27Z</time>
      </trkpt>
      <trkpt lat="45.61149" lon="5.99186">
        <ele>1121.13</ele>
        <time>2021-06-10T09:29:29Z</time>
      </trkpt>
      <trkpt lat="45.61152" lon="5.99211">
        <ele>1118.03</ele>
        <time>2021-06-10T09:29:42Z</time>
      </trkpt>
      <trkpt lat="45.61155" lon="5.9923">
        <ele>1116.1</ele>
        <time>2021-06-10T09:29:52Z</time>
      </trkpt>
      <trkpt lat="45.61155" lon="5.99239">
        <ele>1114.81</ele>
        <time>2021-06-10T09:29:57Z</time>
      </trkpt>
      <trkpt lat="45.61156" lon="5.99248">
        <ele>1113.86</ele>
        <time>2021-06-10T09:30:02Z</time>
      </trkpt>
      <trkpt lat="45.61155" lon="5.99259">
        <ele>1112.63</ele>
        <time>2021-06-10T09:30:08Z</time>
      </trkpt>
      <trkpt lat="45.61155" lon="5.99267">
        <ele>1112.08</ele>
        <time>2021-06-10T09:30:12Z</time>
      </trkpt>
      <trkpt lat="45.61155" lon="5.99291">
        <ele>1109.92</ele>
        <time>2021-06-10T09:30:25Z</time>
      </trkpt>
      <trkpt lat="45.61151" lon="5.99319">
        <ele>1108.44</ele>
        <time>2021-06-10T09:30:40Z</time>
      </trkpt>
      <trkpt lat="45.61149" lon="5.99325">
        <ele>1109.21</ele>
        <time>2021-06-10T09:30:55Z</time>
      </trkpt>
      <trkpt lat="45.61151" lon="5.99326">
        <ele>1109.28</ele>
        <time>2021-06-10T09:31:16Z</time>
      </trkpt>
      <trkpt lat="45.61152" lon="5.99327">
        <ele>1109.12</ele>
        <time>2021-06-10T09:31:40Z</time>
      </trkpt>
    </trkseg>
  </trk>
</gpx>